<?xml version="1.0" encoding="UTF-8"?>
<gpx version="1.1" creator="Endomondo.com" xsi:schemaLocation="http://www.topografix.com/GPX/1/1 http://www.topografix.com/GPX/1/1/gpx.xsd http://www.garmin.com/xmlschemas/GpxExtensions/v3 http://www.garmin.com/xmlschemas/GpxExtensionsv3.xsd http://www.garmin.com/xmlschemas/TrackPointExtension/v1 http://www.garmin.com/xmlschemas/TrackPointExtensionv1.xsd" xmlns="http://www.topografix.com/GPX/1/1" xmlns:gpxtpx="http://www.garmin.com/xmlschemas/TrackPointExtension/v1" xmlns:gpxx="http://www.garmin.com/xmlschemas/GpxExtensions/v3" xmlns:xsi="http://www.w3.org/2001/XMLSchema-instance">
  <metadata>
    <author>
      <name>Rafael Avila Vegué</name>
      <email id="fatfrog65" domain="hotmail.com"/>
    </author>
    <link href="http://www.endomondo.com">
      <text>Endomondo</text>
    </link>
    <time>2013-06-21T14:50:33Z</time>
    <bounds minlat="40.486721" minlon="-3.348979" maxlat="40.486444" maxlon="-3.349492"/>
  </metadata>
  <trk>
    <name>Looking for Crimson Hill ;)</name>
    <cmt>Casi, casi.</cmt>
    <src>http://www.endomondo.com/</src>
    <link href="http://www.endomondo.com/workouts/205965994/6980724">
      <text>Looking for Crimson Hill ;)</text>
    </link>
    <type>MOUNTAIN_BIKING</type>
    <trkseg>
      <trkpt lat="40.486721" lon="-3.348979">
        <time>2013-06-20T17:25:22Z</time>
      </trkpt>
      <trkpt lat="40.486721" lon="-3.348979">
        <ele>729.7</ele>
        <time>2013-06-20T17:25:24Z</time>
      </trkpt>
      <trkpt lat="40.486832" lon="-3.3491">
        <ele>736.7</ele>
        <time>2013-06-20T17:25:47Z</time>
      </trkpt>
      <trkpt lat="40.486648" lon="-3.349238">
        <ele>738.3</ele>
        <time>2013-06-20T17:25:55Z</time>
      </trkpt>
      <trkpt lat="40.486559" lon="-3.348983">
        <ele>729.8</ele>
        <time>2013-06-20T17:26:05Z</time>
      </trkpt>
      <trkpt lat="40.486334" lon="-3.348885">
        <ele>711.3</ele>
        <time>2013-06-20T17:26:12Z</time>
      </trkpt>
      <trkpt lat="40.486159" lon="-3.349039">
        <ele>705.7</ele>
        <time>2013-06-20T17:26:19Z</time>
      </trkpt>
      <trkpt lat="40.486062" lon="-3.349245">
        <ele>691.9</ele>
        <time>2013-06-20T17:26:24Z</time>
      </trkpt>
      <trkpt lat="40.485937" lon="-3.349386">
        <ele>687.3</ele>
        <time>2013-06-20T17:26:30Z</time>
      </trkpt>
      <trkpt lat="40.485728" lon="-3.349399">
        <ele>684.6</ele>
        <time>2013-06-20T17:26:40Z</time>
      </trkpt>
      <trkpt lat="40.485538" lon="-3.349275">
        <ele>677.4</ele>
        <time>2013-06-20T17:26:47Z</time>
      </trkpt>
      <trkpt lat="40.48541" lon="-3.349153">
        <ele>674.6</ele>
        <time>2013-06-20T17:26:52Z</time>
      </trkpt>
      <trkpt lat="40.485203" lon="-3.349146">
        <ele>672.3</ele>
        <time>2013-06-20T17:27:00Z</time>
      </trkpt>
      <trkpt lat="40.485028" lon="-3.349378">
        <ele>671.6</ele>
        <time>2013-06-20T17:27:08Z</time>
      </trkpt>
      <trkpt lat="40.484831" lon="-3.349554">
        <ele>668.9</ele>
        <time>2013-06-20T17:27:16Z</time>
      </trkpt>
      <trkpt lat="40.484679" lon="-3.349786">
        <ele>667.1</ele>
        <time>2013-06-20T17:27:22Z</time>
      </trkpt>
      <trkpt lat="40.484557" lon="-3.349916">
        <ele>661.0</ele>
        <time>2013-06-20T17:27:28Z</time>
      </trkpt>
      <trkpt lat="40.484484" lon="-3.350067">
        <ele>657.3</ele>
        <time>2013-06-20T17:27:33Z</time>
      </trkpt>
      <trkpt lat="40.48437" lon="-3.350322">
        <ele>654.3</ele>
        <time>2013-06-20T17:27:40Z</time>
      </trkpt>
      <trkpt lat="40.484244" lon="-3.350611">
        <ele>656.0</ele>
        <time>2013-06-20T17:27:47Z</time>
      </trkpt>
      <trkpt lat="40.484125" lon="-3.350902">
        <ele>655.1</ele>
        <time>2013-06-20T17:27:54Z</time>
      </trkpt>
      <trkpt lat="40.483997" lon="-3.351213">
        <ele>650.1</ele>
        <time>2013-06-20T17:28:01Z</time>
      </trkpt>
      <trkpt lat="40.483901" lon="-3.351422">
        <ele>647.3</ele>
        <time>2013-06-20T17:28:06Z</time>
      </trkpt>
      <trkpt lat="40.483702" lon="-3.351744">
        <ele>651.0</ele>
        <time>2013-06-20T17:28:14Z</time>
      </trkpt>
      <trkpt lat="40.483488" lon="-3.352029">
        <ele>654.6</ele>
        <time>2013-06-20T17:28:20Z</time>
      </trkpt>
      <trkpt lat="40.483291" lon="-3.352193">
        <ele>655.8</ele>
        <time>2013-06-20T17:28:27Z</time>
      </trkpt>
      <trkpt lat="40.483053" lon="-3.352282">
        <ele>654.2</ele>
        <time>2013-06-20T17:28:33Z</time>
      </trkpt>
      <trkpt lat="40.482772" lon="-3.352334">
        <ele>655.5</ele>
        <time>2013-06-20T17:28:42Z</time>
      </trkpt>
      <trkpt lat="40.482628" lon="-3.352558">
        <ele>656.5</ele>
        <time>2013-06-20T17:28:52Z</time>
      </trkpt>
      <trkpt lat="40.482541" lon="-3.352735">
        <ele>664.2</ele>
        <time>2013-06-20T17:29:00Z</time>
      </trkpt>
      <trkpt lat="40.482527" lon="-3.35307">
        <ele>663.9</ele>
        <time>2013-06-20T17:29:08Z</time>
      </trkpt>
      <trkpt lat="40.482396" lon="-3.353483">
        <ele>665.1</ele>
        <time>2013-06-20T17:29:18Z</time>
      </trkpt>
      <trkpt lat="40.482412" lon="-3.353696">
        <ele>663.0</ele>
        <time>2013-06-20T17:29:27Z</time>
      </trkpt>
      <trkpt lat="40.482218" lon="-3.35395">
        <ele>678.1</ele>
        <time>2013-06-20T17:29:39Z</time>
      </trkpt>
      <trkpt lat="40.482104" lon="-3.354069">
        <ele>681.0</ele>
        <time>2013-06-20T17:29:44Z</time>
      </trkpt>
      <trkpt lat="40.481959" lon="-3.354141">
        <ele>679.7</ele>
        <time>2013-06-20T17:29:49Z</time>
      </trkpt>
      <trkpt lat="40.481777" lon="-3.354261">
        <ele>677.4</ele>
        <time>2013-06-20T17:29:55Z</time>
      </trkpt>
      <trkpt lat="40.481503" lon="-3.35441">
        <ele>669.6</ele>
        <time>2013-06-20T17:30:01Z</time>
      </trkpt>
      <trkpt lat="40.481369" lon="-3.354634">
        <ele>662.1</ele>
        <time>2013-06-20T17:30:07Z</time>
      </trkpt>
      <trkpt lat="40.481272" lon="-3.354841">
        <ele>656.6</ele>
        <time>2013-06-20T17:30:14Z</time>
      </trkpt>
      <trkpt lat="40.481164" lon="-3.354997">
        <ele>658.6</ele>
        <time>2013-06-20T17:30:19Z</time>
      </trkpt>
      <trkpt lat="40.481024" lon="-3.35527">
        <ele>657.4</ele>
        <time>2013-06-20T17:30:25Z</time>
      </trkpt>
      <trkpt lat="40.480867" lon="-3.355594">
        <ele>659.8</ele>
        <time>2013-06-20T17:30:32Z</time>
      </trkpt>
      <trkpt lat="40.480723" lon="-3.355934">
        <ele>659.4</ele>
        <time>2013-06-20T17:30:39Z</time>
      </trkpt>
      <trkpt lat="40.480592" lon="-3.356121">
        <ele>657.1</ele>
        <time>2013-06-20T17:30:44Z</time>
      </trkpt>
      <trkpt lat="40.480408" lon="-3.356411">
        <ele>654.5</ele>
        <time>2013-06-20T17:30:51Z</time>
      </trkpt>
      <trkpt lat="40.48021" lon="-3.356651">
        <ele>658.1</ele>
        <time>2013-06-20T17:30:57Z</time>
      </trkpt>
      <trkpt lat="40.479951" lon="-3.356885">
        <ele>658.8</ele>
        <time>2013-06-20T17:31:04Z</time>
      </trkpt>
      <trkpt lat="40.479794" lon="-3.357048">
        <ele>657.8</ele>
        <time>2013-06-20T17:31:09Z</time>
      </trkpt>
      <trkpt lat="40.479546" lon="-3.357343">
        <ele>662.5</ele>
        <time>2013-06-20T17:31:16Z</time>
      </trkpt>
      <trkpt lat="40.479358" lon="-3.357515">
        <ele>658.6</ele>
        <time>2013-06-20T17:31:21Z</time>
      </trkpt>
      <trkpt lat="40.479061" lon="-3.357684">
        <ele>654.3</ele>
        <time>2013-06-20T17:31:28Z</time>
      </trkpt>
      <trkpt lat="40.478844" lon="-3.357843">
        <ele>655.6</ele>
        <time>2013-06-20T17:31:34Z</time>
      </trkpt>
      <trkpt lat="40.47861" lon="-3.358005">
        <ele>651.6</ele>
        <time>2013-06-20T17:31:40Z</time>
      </trkpt>
      <trkpt lat="40.478418" lon="-3.358159">
        <ele>652.4</ele>
        <time>2013-06-20T17:31:46Z</time>
      </trkpt>
      <trkpt lat="40.478174" lon="-3.358341">
        <ele>652.1</ele>
        <time>2013-06-20T17:31:53Z</time>
      </trkpt>
      <trkpt lat="40.477959" lon="-3.358511">
        <ele>646.0</ele>
        <time>2013-06-20T17:31:59Z</time>
      </trkpt>
      <trkpt lat="40.477769" lon="-3.358806">
        <ele>647.5</ele>
        <time>2013-06-20T17:32:05Z</time>
      </trkpt>
      <trkpt lat="40.477623" lon="-3.359044">
        <ele>647.0</ele>
        <time>2013-06-20T17:32:11Z</time>
      </trkpt>
      <trkpt lat="40.477431" lon="-3.359424">
        <ele>647.6</ele>
        <time>2013-06-20T17:32:18Z</time>
      </trkpt>
      <trkpt lat="40.477344" lon="-3.359602">
        <ele>648.1</ele>
        <time>2013-06-20T17:32:21Z</time>
      </trkpt>
      <trkpt lat="40.477212" lon="-3.359729">
        <ele>645.9</ele>
        <time>2013-06-20T17:32:24Z</time>
      </trkpt>
      <trkpt lat="40.477091" lon="-3.360099">
        <ele>649.5</ele>
        <time>2013-06-20T17:32:31Z</time>
      </trkpt>
      <trkpt lat="40.476911" lon="-3.360226">
        <ele>653.5</ele>
        <time>2013-06-20T17:32:36Z</time>
      </trkpt>
      <trkpt lat="40.476683" lon="-3.360471">
        <ele>658.8</ele>
        <time>2013-06-20T17:32:44Z</time>
      </trkpt>
      <trkpt lat="40.476454" lon="-3.360781">
        <ele>662.5</ele>
        <time>2013-06-20T17:32:50Z</time>
      </trkpt>
      <trkpt lat="40.476183" lon="-3.36102">
        <ele>667.7</ele>
        <time>2013-06-20T17:32:58Z</time>
      </trkpt>
      <trkpt lat="40.475941" lon="-3.361217">
        <ele>668.1</ele>
        <time>2013-06-20T17:33:04Z</time>
      </trkpt>
      <trkpt lat="40.475726" lon="-3.361437">
        <ele>662.3</ele>
        <time>2013-06-20T17:33:10Z</time>
      </trkpt>
      <trkpt lat="40.475553" lon="-3.361666">
        <ele>660.6</ele>
        <time>2013-06-20T17:33:15Z</time>
      </trkpt>
      <trkpt lat="40.475331" lon="-3.361955">
        <ele>658.0</ele>
        <time>2013-06-20T17:33:22Z</time>
      </trkpt>
      <trkpt lat="40.475185" lon="-3.362107">
        <ele>655.9</ele>
        <time>2013-06-20T17:33:30Z</time>
      </trkpt>
      <trkpt lat="40.474962" lon="-3.362217">
        <ele>656.3</ele>
        <time>2013-06-20T17:33:41Z</time>
      </trkpt>
      <trkpt lat="40.474832" lon="-3.362271">
        <ele>655.6</ele>
        <time>2013-06-20T17:33:46Z</time>
      </trkpt>
      <trkpt lat="40.47455" lon="-3.362355">
        <ele>655.1</ele>
        <time>2013-06-20T17:33:54Z</time>
      </trkpt>
      <trkpt lat="40.474312" lon="-3.362445">
        <ele>655.5</ele>
        <time>2013-06-20T17:34:00Z</time>
      </trkpt>
      <trkpt lat="40.47415" lon="-3.362507">
        <ele>655.0</ele>
        <time>2013-06-20T17:34:05Z</time>
      </trkpt>
      <trkpt lat="40.474029" lon="-3.362504">
        <ele>652.9</ele>
        <time>2013-06-20T17:34:10Z</time>
      </trkpt>
      <trkpt lat="40.473756" lon="-3.362466">
        <ele>650.1</ele>
        <time>2013-06-20T17:34:18Z</time>
      </trkpt>
      <trkpt lat="40.473521" lon="-3.36246">
        <ele>651.6</ele>
        <time>2013-06-20T17:34:23Z</time>
      </trkpt>
      <trkpt lat="40.473304" lon="-3.362389">
        <ele>655.1</ele>
        <time>2013-06-20T17:34:29Z</time>
      </trkpt>
      <trkpt lat="40.473156" lon="-3.36235">
        <ele>658.8</ele>
        <time>2013-06-20T17:34:35Z</time>
      </trkpt>
      <trkpt lat="40.473025" lon="-3.362293">
        <ele>659.7</ele>
        <time>2013-06-20T17:34:40Z</time>
      </trkpt>
      <trkpt lat="40.472817" lon="-3.362188">
        <ele>659.1</ele>
        <time>2013-06-20T17:34:46Z</time>
      </trkpt>
      <trkpt lat="40.472571" lon="-3.362074">
        <ele>659.9</ele>
        <time>2013-06-20T17:34:52Z</time>
      </trkpt>
      <trkpt lat="40.472299" lon="-3.361956">
        <ele>660.8</ele>
        <time>2013-06-20T17:34:58Z</time>
      </trkpt>
      <trkpt lat="40.471967" lon="-3.361801">
        <ele>660.0</ele>
        <time>2013-06-20T17:35:04Z</time>
      </trkpt>
      <trkpt lat="40.471784" lon="-3.361715">
        <ele>659.3</ele>
        <time>2013-06-20T17:35:09Z</time>
      </trkpt>
      <trkpt lat="40.471592" lon="-3.36165">
        <ele>657.0</ele>
        <time>2013-06-20T17:35:14Z</time>
      </trkpt>
      <trkpt lat="40.471349" lon="-3.361584">
        <ele>658.4</ele>
        <time>2013-06-20T17:35:21Z</time>
      </trkpt>
      <trkpt lat="40.471076" lon="-3.361486">
        <ele>657.7</ele>
        <time>2013-06-20T17:35:28Z</time>
      </trkpt>
      <trkpt lat="40.470872" lon="-3.361412">
        <ele>656.4</ele>
        <time>2013-06-20T17:35:33Z</time>
      </trkpt>
      <trkpt lat="40.470715" lon="-3.361343">
        <ele>661.3</ele>
        <time>2013-06-20T17:35:37Z</time>
      </trkpt>
      <trkpt lat="40.470557" lon="-3.36131">
        <ele>663.8</ele>
        <time>2013-06-20T17:35:42Z</time>
      </trkpt>
      <trkpt lat="40.470276" lon="-3.361248">
        <ele>665.3</ele>
        <time>2013-06-20T17:35:50Z</time>
      </trkpt>
      <trkpt lat="40.470044" lon="-3.361165">
        <ele>656.3</ele>
        <time>2013-06-20T17:35:56Z</time>
      </trkpt>
      <trkpt lat="40.469862" lon="-3.36098">
        <ele>654.3</ele>
        <time>2013-06-20T17:36:02Z</time>
      </trkpt>
      <trkpt lat="40.469642" lon="-3.360857">
        <ele>649.9</ele>
        <time>2013-06-20T17:36:08Z</time>
      </trkpt>
      <trkpt lat="40.469265" lon="-3.360749">
        <ele>650.0</ele>
        <time>2013-06-20T17:36:15Z</time>
      </trkpt>
      <trkpt lat="40.469106" lon="-3.360761">
        <ele>651.7</ele>
        <time>2013-06-20T17:36:20Z</time>
      </trkpt>
      <trkpt lat="40.468895" lon="-3.361042">
        <ele>652.2</ele>
        <time>2013-06-20T17:36:26Z</time>
      </trkpt>
      <trkpt lat="40.468714" lon="-3.361291">
        <ele>652.7</ele>
        <time>2013-06-20T17:36:32Z</time>
      </trkpt>
      <trkpt lat="40.468574" lon="-3.361485">
        <ele>651.4</ele>
        <time>2013-06-20T17:36:37Z</time>
      </trkpt>
      <trkpt lat="40.468502" lon="-3.361692">
        <ele>654.0</ele>
        <time>2013-06-20T17:36:42Z</time>
      </trkpt>
      <trkpt lat="40.468283" lon="-3.361808">
        <ele>653.4</ele>
        <time>2013-06-20T17:36:50Z</time>
      </trkpt>
      <trkpt lat="40.468018" lon="-3.361704">
        <ele>650.2</ele>
        <time>2013-06-20T17:36:56Z</time>
      </trkpt>
      <trkpt lat="40.467754" lon="-3.361578">
        <ele>650.9</ele>
        <time>2013-06-20T17:37:02Z</time>
      </trkpt>
      <trkpt lat="40.467521" lon="-3.361408">
        <ele>650.4</ele>
        <time>2013-06-20T17:37:08Z</time>
      </trkpt>
      <trkpt lat="40.467341" lon="-3.361478">
        <ele>653.6</ele>
        <time>2013-06-20T17:37:14Z</time>
      </trkpt>
      <trkpt lat="40.467173" lon="-3.361773">
        <ele>654.7</ele>
        <time>2013-06-20T17:37:20Z</time>
      </trkpt>
      <trkpt lat="40.467062" lon="-3.361998">
        <ele>657.0</ele>
        <time>2013-06-20T17:37:25Z</time>
      </trkpt>
      <trkpt lat="40.466908" lon="-3.362266">
        <ele>658.4</ele>
        <time>2013-06-20T17:37:31Z</time>
      </trkpt>
      <trkpt lat="40.46678" lon="-3.362493">
        <ele>657.8</ele>
        <time>2013-06-20T17:37:36Z</time>
      </trkpt>
      <trkpt lat="40.466704" lon="-3.362624">
        <ele>658.2</ele>
        <time>2013-06-20T17:37:39Z</time>
      </trkpt>
      <trkpt lat="40.466513" lon="-3.362966">
        <ele>658.7</ele>
        <time>2013-06-20T17:37:46Z</time>
      </trkpt>
      <trkpt lat="40.466372" lon="-3.363206">
        <ele>659.5</ele>
        <time>2013-06-20T17:37:51Z</time>
      </trkpt>
      <trkpt lat="40.466199" lon="-3.363521">
        <ele>660.1</ele>
        <time>2013-06-20T17:37:57Z</time>
      </trkpt>
      <trkpt lat="40.466065" lon="-3.363755">
        <ele>659.7</ele>
        <time>2013-06-20T17:38:02Z</time>
      </trkpt>
      <trkpt lat="40.465902" lon="-3.364029">
        <ele>660.4</ele>
        <time>2013-06-20T17:38:08Z</time>
      </trkpt>
      <trkpt lat="40.465816" lon="-3.36417">
        <ele>660.5</ele>
        <time>2013-06-20T17:38:11Z</time>
      </trkpt>
      <trkpt lat="40.46571" lon="-3.364348">
        <ele>661.2</ele>
        <time>2013-06-20T17:38:15Z</time>
      </trkpt>
      <trkpt lat="40.465578" lon="-3.364594">
        <ele>661.7</ele>
        <time>2013-06-20T17:38:20Z</time>
      </trkpt>
      <trkpt lat="40.465412" lon="-3.364894">
        <ele>659.4</ele>
        <time>2013-06-20T17:38:26Z</time>
      </trkpt>
      <trkpt lat="40.46531" lon="-3.365193">
        <ele>655.7</ele>
        <time>2013-06-20T17:38:32Z</time>
      </trkpt>
      <trkpt lat="40.46517" lon="-3.365469">
        <ele>655.9</ele>
        <time>2013-06-20T17:38:39Z</time>
      </trkpt>
      <trkpt lat="40.465151" lon="-3.365699">
        <ele>655.2</ele>
        <time>2013-06-20T17:38:46Z</time>
      </trkpt>
      <trkpt lat="40.465458" lon="-3.365812">
        <ele>654.8</ele>
        <time>2013-06-20T17:38:56Z</time>
      </trkpt>
      <trkpt lat="40.465654" lon="-3.365879">
        <ele>654.0</ele>
        <time>2013-06-20T17:39:02Z</time>
      </trkpt>
      <trkpt lat="40.465806" lon="-3.365927">
        <ele>653.5</ele>
        <time>2013-06-20T17:39:11Z</time>
      </trkpt>
      <trkpt lat="40.465632" lon="-3.36607">
        <ele>649.2</ele>
        <time>2013-06-20T17:39:24Z</time>
      </trkpt>
      <trkpt lat="40.46548" lon="-3.366072">
        <ele>649.0</ele>
        <time>2013-06-20T17:39:31Z</time>
      </trkpt>
      <trkpt lat="40.465298" lon="-3.365979">
        <ele>648.2</ele>
        <time>2013-06-20T17:39:38Z</time>
      </trkpt>
      <trkpt lat="40.465057" lon="-3.365835">
        <ele>646.6</ele>
        <time>2013-06-20T17:39:45Z</time>
      </trkpt>
      <trkpt lat="40.464891" lon="-3.365716">
        <ele>648.7</ele>
        <time>2013-06-20T17:39:50Z</time>
      </trkpt>
      <trkpt lat="40.464755" lon="-3.36545">
        <ele>647.2</ele>
        <time>2013-06-20T17:39:57Z</time>
      </trkpt>
      <trkpt lat="40.464646" lon="-3.365246">
        <ele>646.8</ele>
        <time>2013-06-20T17:40:02Z</time>
      </trkpt>
      <trkpt lat="40.46449" lon="-3.364991">
        <ele>647.7</ele>
        <time>2013-06-20T17:40:09Z</time>
      </trkpt>
      <trkpt lat="40.464356" lon="-3.364773">
        <ele>646.9</ele>
        <time>2013-06-20T17:40:16Z</time>
      </trkpt>
      <trkpt lat="40.464309" lon="-3.364728">
        <ele>649.6</ele>
        <time>2013-06-20T17:40:20Z</time>
      </trkpt>
      <trkpt lat="40.464309" lon="-3.364728">
        <time>2013-06-20T17:40:26Z</time>
      </trkpt>
    </trkseg>
    <trkseg>
      <trkpt lat="40.464309" lon="-3.364728">
        <time>2013-06-20T17:40:31Z</time>
      </trkpt>
      <trkpt lat="40.464252" lon="-3.364668">
        <ele>652.5</ele>
        <time>2013-06-20T17:40:31Z</time>
      </trkpt>
      <trkpt lat="40.46399" lon="-3.364257">
        <ele>655.0</ele>
        <time>2013-06-20T17:40:43Z</time>
      </trkpt>
      <trkpt lat="40.463876" lon="-3.364059">
        <ele>655.4</ele>
        <time>2013-06-20T17:40:49Z</time>
      </trkpt>
      <trkpt lat="40.463761" lon="-3.363881">
        <ele>654.6</ele>
        <time>2013-06-20T17:40:56Z</time>
      </trkpt>
      <trkpt lat="40.463761" lon="-3.363881">
        <time>2013-06-20T17:41:01Z</time>
      </trkpt>
    </trkseg>
    <trkseg>
      <trkpt lat="40.463761" lon="-3.363881">
        <time>2013-06-20T17:41:19Z</time>
      </trkpt>
      <trkpt lat="40.463793" lon="-3.363624">
        <ele>654.4</ele>
        <time>2013-06-20T17:41:19Z</time>
      </trkpt>
      <trkpt lat="40.46376" lon="-3.363492">
        <ele>660.4</ele>
        <time>2013-06-20T17:41:31Z</time>
      </trkpt>
      <trkpt lat="40.463565" lon="-3.363247">
        <ele>658.9</ele>
        <time>2013-06-20T17:41:40Z</time>
      </trkpt>
      <trkpt lat="40.463431" lon="-3.363106">
        <ele>656.8</ele>
        <time>2013-06-20T17:41:46Z</time>
      </trkpt>
      <trkpt lat="40.463333" lon="-3.36298">
        <ele>664.1</ele>
        <time>2013-06-20T17:41:52Z</time>
      </trkpt>
      <trkpt lat="40.463272" lon="-3.362783">
        <ele>660.2</ele>
        <time>2013-06-20T17:41:58Z</time>
      </trkpt>
      <trkpt lat="40.463241" lon="-3.362529">
        <ele>659.5</ele>
        <time>2013-06-20T17:42:07Z</time>
      </trkpt>
      <trkpt lat="40.46345" lon="-3.362358">
        <ele>660.0</ele>
        <time>2013-06-20T17:42:17Z</time>
      </trkpt>
      <trkpt lat="40.463702" lon="-3.362291">
        <ele>658.7</ele>
        <time>2013-06-20T17:42:27Z</time>
      </trkpt>
      <trkpt lat="40.463749" lon="-3.361964">
        <ele>661.6</ele>
        <time>2013-06-20T17:42:35Z</time>
      </trkpt>
      <trkpt lat="40.463684" lon="-3.36161">
        <ele>659.7</ele>
        <time>2013-06-20T17:42:42Z</time>
      </trkpt>
      <trkpt lat="40.463638" lon="-3.361302">
        <ele>659.6</ele>
        <time>2013-06-20T17:42:48Z</time>
      </trkpt>
      <trkpt lat="40.463605" lon="-3.360998">
        <ele>659.2</ele>
        <time>2013-06-20T17:42:54Z</time>
      </trkpt>
      <trkpt lat="40.46367" lon="-3.360727">
        <ele>660.3</ele>
        <time>2013-06-20T17:43:00Z</time>
      </trkpt>
      <trkpt lat="40.463869" lon="-3.360599">
        <ele>662.7</ele>
        <time>2013-06-20T17:43:06Z</time>
      </trkpt>
      <trkpt lat="40.464163" lon="-3.360381">
        <ele>659.6</ele>
        <time>2013-06-20T17:43:14Z</time>
      </trkpt>
      <trkpt lat="40.464309" lon="-3.36016">
        <ele>656.4</ele>
        <time>2013-06-20T17:43:19Z</time>
      </trkpt>
      <trkpt lat="40.464378" lon="-3.360009">
        <ele>656.7</ele>
        <time>2013-06-20T17:43:22Z</time>
      </trkpt>
      <trkpt lat="40.464553" lon="-3.359736">
        <ele>655.0</ele>
        <time>2013-06-20T17:43:27Z</time>
      </trkpt>
      <trkpt lat="40.46474" lon="-3.359445">
        <ele>652.1</ele>
        <time>2013-06-20T17:43:34Z</time>
      </trkpt>
      <trkpt lat="40.464522" lon="-3.359239">
        <ele>650.4</ele>
        <time>2013-06-20T17:43:40Z</time>
      </trkpt>
      <trkpt lat="40.46425" lon="-3.359008">
        <ele>650.7</ele>
        <time>2013-06-20T17:43:46Z</time>
      </trkpt>
      <trkpt lat="40.46407" lon="-3.358656">
        <ele>652.0</ele>
        <time>2013-06-20T17:43:52Z</time>
      </trkpt>
      <trkpt lat="40.463855" lon="-3.358343">
        <ele>651.5</ele>
        <time>2013-06-20T17:43:58Z</time>
      </trkpt>
      <trkpt lat="40.463697" lon="-3.357976">
        <ele>649.2</ele>
        <time>2013-06-20T17:44:04Z</time>
      </trkpt>
      <trkpt lat="40.463426" lon="-3.357724">
        <ele>650.9</ele>
        <time>2013-06-20T17:44:10Z</time>
      </trkpt>
      <trkpt lat="40.46317" lon="-3.357503">
        <ele>650.8</ele>
        <time>2013-06-20T17:44:16Z</time>
      </trkpt>
      <trkpt lat="40.46303" lon="-3.357411">
        <ele>651.2</ele>
        <time>2013-06-20T17:44:19Z</time>
      </trkpt>
      <trkpt lat="40.462853" lon="-3.357259">
        <ele>651.5</ele>
        <time>2013-06-20T17:44:23Z</time>
      </trkpt>
      <trkpt lat="40.462755" lon="-3.35712">
        <ele>652.2</ele>
        <time>2013-06-20T17:44:26Z</time>
      </trkpt>
      <trkpt lat="40.462621" lon="-3.356816">
        <ele>655.4</ele>
        <time>2013-06-20T17:44:32Z</time>
      </trkpt>
      <trkpt lat="40.462553" lon="-3.356531">
        <ele>655.2</ele>
        <time>2013-06-20T17:44:38Z</time>
      </trkpt>
      <trkpt lat="40.462549" lon="-3.356201">
        <ele>654.5</ele>
        <time>2013-06-20T17:44:44Z</time>
      </trkpt>
      <trkpt lat="40.462528" lon="-3.355967">
        <ele>653.0</ele>
        <time>2013-06-20T17:44:48Z</time>
      </trkpt>
      <trkpt lat="40.462445" lon="-3.355712">
        <ele>653.3</ele>
        <time>2013-06-20T17:44:53Z</time>
      </trkpt>
      <trkpt lat="40.462338" lon="-3.355478">
        <ele>654.4</ele>
        <time>2013-06-20T17:44:58Z</time>
      </trkpt>
      <trkpt lat="40.462334" lon="-3.3552">
        <ele>658.4</ele>
        <time>2013-06-20T17:45:04Z</time>
      </trkpt>
      <trkpt lat="40.462353" lon="-3.354896">
        <ele>656.4</ele>
        <time>2013-06-20T17:45:09Z</time>
      </trkpt>
      <trkpt lat="40.462339" lon="-3.354562">
        <ele>655.4</ele>
        <time>2013-06-20T17:45:15Z</time>
      </trkpt>
      <trkpt lat="40.46224" lon="-3.354134">
        <ele>657.2</ele>
        <time>2013-06-20T17:45:22Z</time>
      </trkpt>
      <trkpt lat="40.462078" lon="-3.353873">
        <ele>655.2</ele>
        <time>2013-06-20T17:45:28Z</time>
      </trkpt>
      <trkpt lat="40.461881" lon="-3.353586">
        <ele>657.4</ele>
        <time>2013-06-20T17:45:35Z</time>
      </trkpt>
      <trkpt lat="40.461785" lon="-3.353273">
        <ele>655.6</ele>
        <time>2013-06-20T17:45:41Z</time>
      </trkpt>
      <trkpt lat="40.461746" lon="-3.35301">
        <ele>656.0</ele>
        <time>2013-06-20T17:45:46Z</time>
      </trkpt>
      <trkpt lat="40.46193" lon="-3.352693">
        <ele>656.9</ele>
        <time>2013-06-20T17:45:53Z</time>
      </trkpt>
      <trkpt lat="40.462015" lon="-3.352421">
        <ele>657.6</ele>
        <time>2013-06-20T17:45:59Z</time>
      </trkpt>
      <trkpt lat="40.462088" lon="-3.35215">
        <ele>656.8</ele>
        <time>2013-06-20T17:46:05Z</time>
      </trkpt>
      <trkpt lat="40.462132" lon="-3.351802">
        <ele>658.6</ele>
        <time>2013-06-20T17:46:12Z</time>
      </trkpt>
      <trkpt lat="40.462172" lon="-3.351439">
        <ele>657.4</ele>
        <time>2013-06-20T17:46:19Z</time>
      </trkpt>
      <trkpt lat="40.462207" lon="-3.351195">
        <ele>656.4</ele>
        <time>2013-06-20T17:46:24Z</time>
      </trkpt>
      <trkpt lat="40.46234" lon="-3.350882">
        <ele>657.3</ele>
        <time>2013-06-20T17:46:31Z</time>
      </trkpt>
      <trkpt lat="40.462554" lon="-3.350886">
        <ele>658.2</ele>
        <time>2013-06-20T17:46:36Z</time>
      </trkpt>
      <trkpt lat="40.462819" lon="-3.350931">
        <ele>658.7</ele>
        <time>2013-06-20T17:46:42Z</time>
      </trkpt>
      <trkpt lat="40.46301" lon="-3.350692">
        <ele>661.1</ele>
        <time>2013-06-20T17:46:49Z</time>
      </trkpt>
      <trkpt lat="40.463181" lon="-3.350473">
        <ele>660.5</ele>
        <time>2013-06-20T17:46:55Z</time>
      </trkpt>
      <trkpt lat="40.463284" lon="-3.350316">
        <ele>661.4</ele>
        <time>2013-06-20T17:46:59Z</time>
      </trkpt>
      <trkpt lat="40.463317" lon="-3.350047">
        <ele>661.3</ele>
        <time>2013-06-20T17:47:05Z</time>
      </trkpt>
      <trkpt lat="40.46329" lon="-3.349753">
        <ele>660.6</ele>
        <time>2013-06-20T17:47:11Z</time>
      </trkpt>
      <trkpt lat="40.463266" lon="-3.349538">
        <ele>664.7</ele>
        <time>2013-06-20T17:47:16Z</time>
      </trkpt>
      <trkpt lat="40.463215" lon="-3.349264">
        <ele>667.2</ele>
        <time>2013-06-20T17:47:24Z</time>
      </trkpt>
      <trkpt lat="40.463226" lon="-3.349015">
        <ele>666.3</ele>
        <time>2013-06-20T17:47:31Z</time>
      </trkpt>
      <trkpt lat="40.463248" lon="-3.348776">
        <ele>668.7</ele>
        <time>2013-06-20T17:47:38Z</time>
      </trkpt>
      <trkpt lat="40.46316" lon="-3.348535">
        <ele>668.2</ele>
        <time>2013-06-20T17:47:46Z</time>
      </trkpt>
      <trkpt lat="40.463141" lon="-3.348337">
        <ele>671.6</ele>
        <time>2013-06-20T17:47:51Z</time>
      </trkpt>
      <trkpt lat="40.463156" lon="-3.348069">
        <ele>676.4</ele>
        <time>2013-06-20T17:47:58Z</time>
      </trkpt>
      <trkpt lat="40.463148" lon="-3.347847">
        <ele>677.5</ele>
        <time>2013-06-20T17:48:04Z</time>
      </trkpt>
      <trkpt lat="40.463142" lon="-3.347684">
        <ele>679.5</ele>
        <time>2013-06-20T17:48:09Z</time>
      </trkpt>
      <trkpt lat="40.46314" lon="-3.3475">
        <ele>681.5</ele>
        <time>2013-06-20T17:48:14Z</time>
      </trkpt>
      <trkpt lat="40.46313" lon="-3.347236">
        <ele>686.9</ele>
        <time>2013-06-20T17:48:21Z</time>
      </trkpt>
      <trkpt lat="40.463085" lon="-3.347067">
        <ele>688.6</ele>
        <time>2013-06-20T17:48:26Z</time>
      </trkpt>
      <trkpt lat="40.462962" lon="-3.34687">
        <ele>694.3</ele>
        <time>2013-06-20T17:48:34Z</time>
      </trkpt>
      <trkpt lat="40.462854" lon="-3.346675">
        <ele>695.8</ele>
        <time>2013-06-20T17:48:40Z</time>
      </trkpt>
      <trkpt lat="40.46275" lon="-3.346501">
        <ele>695.3</ele>
        <time>2013-06-20T17:48:46Z</time>
      </trkpt>
      <trkpt lat="40.462637" lon="-3.34626">
        <ele>693.8</ele>
        <time>2013-06-20T17:48:54Z</time>
      </trkpt>
      <trkpt lat="40.462518" lon="-3.345962">
        <ele>692.7</ele>
        <time>2013-06-20T17:49:02Z</time>
      </trkpt>
      <trkpt lat="40.462458" lon="-3.345716">
        <ele>691.5</ele>
        <time>2013-06-20T17:49:09Z</time>
      </trkpt>
      <trkpt lat="40.462373" lon="-3.34547">
        <ele>692.0</ele>
        <time>2013-06-20T17:49:16Z</time>
      </trkpt>
      <trkpt lat="40.4623" lon="-3.345214">
        <ele>692.2</ele>
        <time>2013-06-20T17:49:23Z</time>
      </trkpt>
      <trkpt lat="40.462249" lon="-3.34496">
        <ele>691.6</ele>
        <time>2013-06-20T17:49:30Z</time>
      </trkpt>
      <trkpt lat="40.462215" lon="-3.344685">
        <ele>694.3</ele>
        <time>2013-06-20T17:49:38Z</time>
      </trkpt>
      <trkpt lat="40.462235" lon="-3.344548">
        <ele>696.9</ele>
        <time>2013-06-20T17:49:43Z</time>
      </trkpt>
      <trkpt lat="40.462231" lon="-3.344303">
        <ele>698.5</ele>
        <time>2013-06-20T17:49:52Z</time>
      </trkpt>
      <trkpt lat="40.462103" lon="-3.344045">
        <ele>701.8</ele>
        <time>2013-06-20T17:50:03Z</time>
      </trkpt>
      <trkpt lat="40.461975" lon="-3.343898">
        <ele>701.6</ele>
        <time>2013-06-20T17:50:10Z</time>
      </trkpt>
      <trkpt lat="40.461815" lon="-3.343744">
        <ele>703.7</ele>
        <time>2013-06-20T17:50:18Z</time>
      </trkpt>
      <trkpt lat="40.461688" lon="-3.343591">
        <ele>702.8</ele>
        <time>2013-06-20T17:50:25Z</time>
      </trkpt>
      <trkpt lat="40.461569" lon="-3.34338">
        <ele>703.6</ele>
        <time>2013-06-20T17:50:34Z</time>
      </trkpt>
      <trkpt lat="40.461408" lon="-3.343178">
        <ele>702.1</ele>
        <time>2013-06-20T17:50:43Z</time>
      </trkpt>
      <trkpt lat="40.461258" lon="-3.342986">
        <ele>701.9</ele>
        <time>2013-06-20T17:50:51Z</time>
      </trkpt>
      <trkpt lat="40.461204" lon="-3.342929">
        <ele>703.2</ele>
        <time>2013-06-20T17:50:54Z</time>
      </trkpt>
      <trkpt lat="40.46115" lon="-3.342865">
        <ele>703.7</ele>
        <time>2013-06-20T17:50:57Z</time>
      </trkpt>
      <trkpt lat="40.461085" lon="-3.342793">
        <ele>704.9</ele>
        <time>2013-06-20T17:51:00Z</time>
      </trkpt>
      <trkpt lat="40.460922" lon="-3.3426">
        <ele>704.6</ele>
        <time>2013-06-20T17:51:08Z</time>
      </trkpt>
      <trkpt lat="40.460748" lon="-3.342391">
        <ele>707.5</ele>
        <time>2013-06-20T17:51:17Z</time>
      </trkpt>
      <trkpt lat="40.460572" lon="-3.342202">
        <ele>710.4</ele>
        <time>2013-06-20T17:51:25Z</time>
      </trkpt>
      <trkpt lat="40.46042" lon="-3.342014">
        <ele>711.1</ele>
        <time>2013-06-20T17:51:33Z</time>
      </trkpt>
      <trkpt lat="40.460252" lon="-3.341808">
        <ele>713.1</ele>
        <time>2013-06-20T17:51:41Z</time>
      </trkpt>
      <trkpt lat="40.460123" lon="-3.341641">
        <ele>711.1</ele>
        <time>2013-06-20T17:51:48Z</time>
      </trkpt>
      <trkpt lat="40.45996" lon="-3.34146">
        <ele>714.0</ele>
        <time>2013-06-20T17:51:56Z</time>
      </trkpt>
      <trkpt lat="40.459783" lon="-3.341279">
        <ele>713.5</ele>
        <time>2013-06-20T17:52:05Z</time>
      </trkpt>
      <trkpt lat="40.459625" lon="-3.341052">
        <ele>715.0</ele>
        <time>2013-06-20T17:52:14Z</time>
      </trkpt>
      <trkpt lat="40.459426" lon="-3.340978">
        <ele>721.4</ele>
        <time>2013-06-20T17:52:21Z</time>
      </trkpt>
      <trkpt lat="40.459304" lon="-3.34097">
        <ele>724.3</ele>
        <time>2013-06-20T17:52:26Z</time>
      </trkpt>
      <trkpt lat="40.459126" lon="-3.340928">
        <ele>727.2</ele>
        <time>2013-06-20T17:52:34Z</time>
      </trkpt>
      <trkpt lat="40.458898" lon="-3.340786">
        <ele>732.7</ele>
        <time>2013-06-20T17:52:44Z</time>
      </trkpt>
      <trkpt lat="40.458833" lon="-3.340584">
        <ele>732.8</ele>
        <time>2013-06-20T17:52:50Z</time>
      </trkpt>
      <trkpt lat="40.458712" lon="-3.340342">
        <ele>733.5</ele>
        <time>2013-06-20T17:52:57Z</time>
      </trkpt>
      <trkpt lat="40.458525" lon="-3.340052">
        <ele>731.7</ele>
        <time>2013-06-20T17:53:03Z</time>
      </trkpt>
      <trkpt lat="40.45828" lon="-3.339799">
        <ele>733.3</ele>
        <time>2013-06-20T17:53:11Z</time>
      </trkpt>
      <trkpt lat="40.45815" lon="-3.339681">
        <ele>733.3</ele>
        <time>2013-06-20T17:53:16Z</time>
      </trkpt>
      <trkpt lat="40.457984" lon="-3.339563">
        <ele>734.5</ele>
        <time>2013-06-20T17:53:22Z</time>
      </trkpt>
      <trkpt lat="40.45781" lon="-3.339473">
        <ele>736.6</ele>
        <time>2013-06-20T17:53:29Z</time>
      </trkpt>
      <trkpt lat="40.457538" lon="-3.339368">
        <ele>739.6</ele>
        <time>2013-06-20T17:53:38Z</time>
      </trkpt>
      <trkpt lat="40.457381" lon="-3.339263">
        <ele>737.0</ele>
        <time>2013-06-20T17:53:44Z</time>
      </trkpt>
      <trkpt lat="40.457176" lon="-3.339102">
        <ele>739.8</ele>
        <time>2013-06-20T17:53:53Z</time>
      </trkpt>
      <trkpt lat="40.457014" lon="-3.33895">
        <ele>738.7</ele>
        <time>2013-06-20T17:54:01Z</time>
      </trkpt>
      <trkpt lat="40.456879" lon="-3.338781">
        <ele>740.5</ele>
        <time>2013-06-20T17:54:08Z</time>
      </trkpt>
      <trkpt lat="40.456795" lon="-3.338643">
        <ele>741.3</ele>
        <time>2013-06-20T17:54:16Z</time>
      </trkpt>
      <trkpt lat="40.456729" lon="-3.338331">
        <ele>741.8</ele>
        <time>2013-06-20T17:54:26Z</time>
      </trkpt>
      <trkpt lat="40.45663" lon="-3.338148">
        <ele>742.3</ele>
        <time>2013-06-20T17:54:34Z</time>
      </trkpt>
      <trkpt lat="40.456569" lon="-3.338004">
        <ele>744.6</ele>
        <time>2013-06-20T17:54:40Z</time>
      </trkpt>
      <trkpt lat="40.456628" lon="-3.337828">
        <ele>749.3</ele>
        <time>2013-06-20T17:54:49Z</time>
      </trkpt>
      <trkpt lat="40.456866" lon="-3.337927">
        <ele>745.4</ele>
        <time>2013-06-20T17:54:59Z</time>
      </trkpt>
      <trkpt lat="40.45703" lon="-3.33795">
        <ele>746.8</ele>
        <time>2013-06-20T17:55:05Z</time>
      </trkpt>
      <trkpt lat="40.457138" lon="-3.338005">
        <ele>744.2</ele>
        <time>2013-06-20T17:55:10Z</time>
      </trkpt>
      <trkpt lat="40.45733" lon="-3.338091">
        <ele>749.0</ele>
        <time>2013-06-20T17:55:19Z</time>
      </trkpt>
      <trkpt lat="40.457419" lon="-3.338054">
        <ele>756.6</ele>
        <time>2013-06-20T17:55:25Z</time>
      </trkpt>
      <trkpt lat="40.457513" lon="-3.337735">
        <ele>761.4</ele>
        <time>2013-06-20T17:55:39Z</time>
      </trkpt>
      <trkpt lat="40.457479" lon="-3.33745">
        <ele>761.1</ele>
        <time>2013-06-20T17:55:49Z</time>
      </trkpt>
      <trkpt lat="40.457496" lon="-3.33709">
        <ele>759.0</ele>
        <time>2013-06-20T17:55:59Z</time>
      </trkpt>
      <trkpt lat="40.457377" lon="-3.336808">
        <ele>764.6</ele>
        <time>2013-06-20T17:56:08Z</time>
      </trkpt>
      <trkpt lat="40.457355" lon="-3.33678">
        <ele>761.6</ele>
        <time>2013-06-20T17:56:13Z</time>
      </trkpt>
      <trkpt lat="40.457355" lon="-3.33678">
        <time>2013-06-20T17:56:19Z</time>
      </trkpt>
    </trkseg>
    <trkseg>
      <trkpt lat="40.457355" lon="-3.33678">
        <time>2013-06-20T17:56:23Z</time>
      </trkpt>
      <trkpt lat="40.457315" lon="-3.336686">
        <ele>762.7</ele>
        <time>2013-06-20T17:56:23Z</time>
      </trkpt>
      <trkpt lat="40.457202" lon="-3.336395">
        <ele>760.5</ele>
        <time>2013-06-20T17:56:33Z</time>
      </trkpt>
      <trkpt lat="40.457161" lon="-3.336234">
        <ele>759.8</ele>
        <time>2013-06-20T17:56:39Z</time>
      </trkpt>
      <trkpt lat="40.457079" lon="-3.336086">
        <ele>763.2</ele>
        <time>2013-06-20T17:56:45Z</time>
      </trkpt>
      <trkpt lat="40.45703" lon="-3.335804">
        <ele>758.8</ele>
        <time>2013-06-20T17:56:54Z</time>
      </trkpt>
      <trkpt lat="40.45704" lon="-3.335643">
        <ele>759.2</ele>
        <time>2013-06-20T17:56:59Z</time>
      </trkpt>
      <trkpt lat="40.457067" lon="-3.335451">
        <ele>755.5</ele>
        <time>2013-06-20T17:57:08Z</time>
      </trkpt>
      <trkpt lat="40.457038" lon="-3.335132">
        <ele>756.4</ele>
        <time>2013-06-20T17:57:19Z</time>
      </trkpt>
      <trkpt lat="40.456862" lon="-3.334635">
        <ele>758.3</ele>
        <time>2013-06-20T17:57:27Z</time>
      </trkpt>
      <trkpt lat="40.456732" lon="-3.334433">
        <ele>758.6</ele>
        <time>2013-06-20T17:57:32Z</time>
      </trkpt>
      <trkpt lat="40.456653" lon="-3.334307">
        <ele>759.9</ele>
        <time>2013-06-20T17:57:38Z</time>
      </trkpt>
      <trkpt lat="40.456676" lon="-3.334076">
        <ele>759.8</ele>
        <time>2013-06-20T17:57:45Z</time>
      </trkpt>
      <trkpt lat="40.45672" lon="-3.333885">
        <ele>759.8</ele>
        <time>2013-06-20T17:57:50Z</time>
      </trkpt>
      <trkpt lat="40.456833" lon="-3.333359">
        <ele>759.2</ele>
        <time>2013-06-20T17:57:58Z</time>
      </trkpt>
      <trkpt lat="40.456987" lon="-3.333231">
        <ele>759.2</ele>
        <time>2013-06-20T17:58:03Z</time>
      </trkpt>
      <trkpt lat="40.457055" lon="-3.333517">
        <ele>760.1</ele>
        <time>2013-06-20T17:58:10Z</time>
      </trkpt>
      <trkpt lat="40.457067" lon="-3.333683">
        <ele>761.4</ele>
        <time>2013-06-20T17:58:14Z</time>
      </trkpt>
      <trkpt lat="40.457199" lon="-3.33386">
        <ele>765.7</ele>
        <time>2013-06-20T17:58:23Z</time>
      </trkpt>
      <trkpt lat="40.457377" lon="-3.333987">
        <ele>765.5</ele>
        <time>2013-06-20T17:58:31Z</time>
      </trkpt>
      <trkpt lat="40.457542" lon="-3.334032">
        <ele>765.0</ele>
        <time>2013-06-20T17:58:37Z</time>
      </trkpt>
      <trkpt lat="40.457656" lon="-3.334109">
        <ele>765.5</ele>
        <time>2013-06-20T17:58:42Z</time>
      </trkpt>
      <trkpt lat="40.457772" lon="-3.334217">
        <ele>768.2</ele>
        <time>2013-06-20T17:58:49Z</time>
      </trkpt>
      <trkpt lat="40.457909" lon="-3.334016">
        <ele>768.8</ele>
        <time>2013-06-20T17:58:57Z</time>
      </trkpt>
      <trkpt lat="40.458087" lon="-3.333921">
        <ele>767.2</ele>
        <time>2013-06-20T17:59:03Z</time>
      </trkpt>
      <trkpt lat="40.458361" lon="-3.333828">
        <ele>767.6</ele>
        <time>2013-06-20T17:59:11Z</time>
      </trkpt>
      <trkpt lat="40.458569" lon="-3.333669">
        <ele>766.7</ele>
        <time>2013-06-20T17:59:18Z</time>
      </trkpt>
      <trkpt lat="40.458648" lon="-3.333606">
        <ele>768.4</ele>
        <time>2013-06-20T17:59:21Z</time>
      </trkpt>
      <trkpt lat="40.458857" lon="-3.333434">
        <ele>766.9</ele>
        <time>2013-06-20T17:59:28Z</time>
      </trkpt>
      <trkpt lat="40.45899" lon="-3.333322">
        <ele>763.8</ele>
        <time>2013-06-20T17:59:31Z</time>
      </trkpt>
      <trkpt lat="40.459036" lon="-3.333027">
        <ele>766.0</ele>
        <time>2013-06-20T17:59:37Z</time>
      </trkpt>
      <trkpt lat="40.458991" lon="-3.3327">
        <ele>766.5</ele>
        <time>2013-06-20T17:59:42Z</time>
      </trkpt>
      <trkpt lat="40.458876" lon="-3.332469">
        <ele>764.5</ele>
        <time>2013-06-20T17:59:49Z</time>
      </trkpt>
      <trkpt lat="40.458833" lon="-3.332142">
        <ele>764.1</ele>
        <time>2013-06-20T17:59:57Z</time>
      </trkpt>
      <trkpt lat="40.458719" lon="-3.33182">
        <ele>762.9</ele>
        <time>2013-06-20T18:00:06Z</time>
      </trkpt>
      <trkpt lat="40.459052" lon="-3.331622">
        <ele>763.6</ele>
        <time>2013-06-20T18:00:15Z</time>
      </trkpt>
      <trkpt lat="40.459241" lon="-3.331669">
        <ele>767.5</ele>
        <time>2013-06-20T18:00:22Z</time>
      </trkpt>
      <trkpt lat="40.459386" lon="-3.331708">
        <ele>768.7</ele>
        <time>2013-06-20T18:00:28Z</time>
      </trkpt>
      <trkpt lat="40.459584" lon="-3.331616">
        <ele>767.4</ele>
        <time>2013-06-20T18:00:37Z</time>
      </trkpt>
      <trkpt lat="40.459622" lon="-3.331423">
        <ele>767.1</ele>
        <time>2013-06-20T18:00:44Z</time>
      </trkpt>
      <trkpt lat="40.459629" lon="-3.331178">
        <ele>766.6</ele>
        <time>2013-06-20T18:00:51Z</time>
      </trkpt>
      <trkpt lat="40.459628" lon="-3.330782">
        <ele>770.2</ele>
        <time>2013-06-20T18:01:00Z</time>
      </trkpt>
      <trkpt lat="40.459703" lon="-3.330421">
        <ele>767.4</ele>
        <time>2013-06-20T18:01:06Z</time>
      </trkpt>
      <trkpt lat="40.459943" lon="-3.330315">
        <ele>771.4</ele>
        <time>2013-06-20T18:01:12Z</time>
      </trkpt>
      <trkpt lat="40.460168" lon="-3.330472">
        <ele>774.3</ele>
        <time>2013-06-20T18:01:20Z</time>
      </trkpt>
      <trkpt lat="40.460283" lon="-3.330536">
        <ele>776.9</ele>
        <time>2013-06-20T18:01:25Z</time>
      </trkpt>
      <trkpt lat="40.460475" lon="-3.330374">
        <ele>777.0</ele>
        <time>2013-06-20T18:01:33Z</time>
      </trkpt>
      <trkpt lat="40.460736" lon="-3.330204">
        <ele>780.4</ele>
        <time>2013-06-20T18:01:41Z</time>
      </trkpt>
      <trkpt lat="40.460912" lon="-3.330002">
        <ele>780.4</ele>
        <time>2013-06-20T18:01:46Z</time>
      </trkpt>
      <trkpt lat="40.461156" lon="-3.329959">
        <ele>779.0</ele>
        <time>2013-06-20T18:01:53Z</time>
      </trkpt>
      <trkpt lat="40.461323" lon="-3.33018">
        <ele>778.0</ele>
        <time>2013-06-20T18:02:01Z</time>
      </trkpt>
      <trkpt lat="40.461528" lon="-3.330261">
        <ele>777.9</ele>
        <time>2013-06-20T18:02:08Z</time>
      </trkpt>
      <trkpt lat="40.46177" lon="-3.330239">
        <ele>780.7</ele>
        <time>2013-06-20T18:02:16Z</time>
      </trkpt>
      <trkpt lat="40.461937" lon="-3.330334">
        <ele>782.6</ele>
        <time>2013-06-20T18:02:24Z</time>
      </trkpt>
      <trkpt lat="40.462077" lon="-3.330414">
        <ele>785.1</ele>
        <time>2013-06-20T18:02:30Z</time>
      </trkpt>
      <trkpt lat="40.46224" lon="-3.330266">
        <ele>786.2</ele>
        <time>2013-06-20T18:02:37Z</time>
      </trkpt>
      <trkpt lat="40.46241" lon="-3.329624">
        <ele>782.3</ele>
        <time>2013-06-20T18:02:44Z</time>
      </trkpt>
      <trkpt lat="40.462743" lon="-3.329096">
        <ele>779.0</ele>
        <time>2013-06-20T18:02:50Z</time>
      </trkpt>
      <trkpt lat="40.463002" lon="-3.32876">
        <ele>779.9</ele>
        <time>2013-06-20T18:02:56Z</time>
      </trkpt>
      <trkpt lat="40.463088" lon="-3.328575">
        <ele>783.0</ele>
        <time>2013-06-20T18:03:00Z</time>
      </trkpt>
      <trkpt lat="40.463174" lon="-3.32841">
        <ele>783.2</ele>
        <time>2013-06-20T18:03:07Z</time>
      </trkpt>
      <trkpt lat="40.463253" lon="-3.328209">
        <ele>786.6</ele>
        <time>2013-06-20T18:03:14Z</time>
      </trkpt>
      <trkpt lat="40.463425" lon="-3.328073">
        <ele>786.6</ele>
        <time>2013-06-20T18:03:22Z</time>
      </trkpt>
      <trkpt lat="40.463626" lon="-3.328052">
        <ele>788.2</ele>
        <time>2013-06-20T18:03:29Z</time>
      </trkpt>
      <trkpt lat="40.463796" lon="-3.32816">
        <ele>788.0</ele>
        <time>2013-06-20T18:03:36Z</time>
      </trkpt>
      <trkpt lat="40.463907" lon="-3.328355">
        <ele>785.6</ele>
        <time>2013-06-20T18:03:42Z</time>
      </trkpt>
      <trkpt lat="40.463971" lon="-3.32859">
        <ele>786.6</ele>
        <time>2013-06-20T18:03:50Z</time>
      </trkpt>
      <trkpt lat="40.464086" lon="-3.328842">
        <ele>788.2</ele>
        <time>2013-06-20T18:03:59Z</time>
      </trkpt>
      <trkpt lat="40.464385" lon="-3.328827">
        <ele>789.7</ele>
        <time>2013-06-20T18:04:07Z</time>
      </trkpt>
      <trkpt lat="40.464553" lon="-3.328944">
        <ele>792.5</ele>
        <time>2013-06-20T18:04:14Z</time>
      </trkpt>
      <trkpt lat="40.464738" lon="-3.329078">
        <ele>796.2</ele>
        <time>2013-06-20T18:04:23Z</time>
      </trkpt>
      <trkpt lat="40.464957" lon="-3.329102">
        <ele>799.7</ele>
        <time>2013-06-20T18:04:33Z</time>
      </trkpt>
      <trkpt lat="40.465114" lon="-3.329047">
        <ele>802.1</ele>
        <time>2013-06-20T18:04:41Z</time>
      </trkpt>
      <trkpt lat="40.465322" lon="-3.32901">
        <ele>802.4</ele>
        <time>2013-06-20T18:04:51Z</time>
      </trkpt>
      <trkpt lat="40.46553" lon="-3.328878">
        <ele>801.2</ele>
        <time>2013-06-20T18:05:01Z</time>
      </trkpt>
      <trkpt lat="40.465634" lon="-3.328814">
        <ele>801.6</ele>
        <time>2013-06-20T18:05:06Z</time>
      </trkpt>
      <trkpt lat="40.4658" lon="-3.328693">
        <ele>801.5</ele>
        <time>2013-06-20T18:05:14Z</time>
      </trkpt>
      <trkpt lat="40.465955" lon="-3.328561">
        <ele>801.1</ele>
        <time>2013-06-20T18:05:23Z</time>
      </trkpt>
      <trkpt lat="40.466128" lon="-3.328339">
        <ele>799.0</ele>
        <time>2013-06-20T18:05:33Z</time>
      </trkpt>
      <trkpt lat="40.46618" lon="-3.3281">
        <ele>794.7</ele>
        <time>2013-06-20T18:05:36Z</time>
      </trkpt>
      <trkpt lat="40.466233" lon="-3.327751">
        <ele>792.2</ele>
        <time>2013-06-20T18:05:39Z</time>
      </trkpt>
      <trkpt lat="40.466301" lon="-3.327397">
        <ele>792.1</ele>
        <time>2013-06-20T18:05:42Z</time>
      </trkpt>
      <trkpt lat="40.466395" lon="-3.326958">
        <ele>792.5</ele>
        <time>2013-06-20T18:05:47Z</time>
      </trkpt>
      <trkpt lat="40.466791" lon="-3.32669">
        <ele>790.8</ele>
        <time>2013-06-20T18:05:53Z</time>
      </trkpt>
      <trkpt lat="40.466951" lon="-3.326668">
        <ele>793.9</ele>
        <time>2013-06-20T18:05:56Z</time>
      </trkpt>
      <trkpt lat="40.46704" lon="-3.326614">
        <ele>794.8</ele>
        <time>2013-06-20T18:05:59Z</time>
      </trkpt>
      <trkpt lat="40.46704" lon="-3.326614">
        <time>2013-06-20T18:06:05Z</time>
      </trkpt>
    </trkseg>
    <trkseg>
      <trkpt lat="40.46704" lon="-3.326614">
        <time>2013-06-20T18:06:10Z</time>
      </trkpt>
      <trkpt lat="40.467086" lon="-3.326551">
        <ele>795.4</ele>
        <time>2013-06-20T18:06:10Z</time>
      </trkpt>
      <trkpt lat="40.467192" lon="-3.326455">
        <ele>799.3</ele>
        <time>2013-06-20T18:06:19Z</time>
      </trkpt>
      <trkpt lat="40.467407" lon="-3.326256">
        <ele>799.8</ele>
        <time>2013-06-20T18:06:28Z</time>
      </trkpt>
      <trkpt lat="40.46751" lon="-3.325829">
        <ele>803.4</ele>
        <time>2013-06-20T18:06:34Z</time>
      </trkpt>
      <trkpt lat="40.467546" lon="-3.325583">
        <ele>803.6</ele>
        <time>2013-06-20T18:06:41Z</time>
      </trkpt>
      <trkpt lat="40.467601" lon="-3.325135">
        <ele>796.2</ele>
        <time>2013-06-20T18:06:51Z</time>
      </trkpt>
      <trkpt lat="40.46758" lon="-3.324563">
        <ele>792.2</ele>
        <time>2013-06-20T18:06:57Z</time>
      </trkpt>
      <trkpt lat="40.467492" lon="-3.324036">
        <ele>789.2</ele>
        <time>2013-06-20T18:07:03Z</time>
      </trkpt>
      <trkpt lat="40.467521" lon="-3.323735">
        <ele>787.6</ele>
        <time>2013-06-20T18:07:08Z</time>
      </trkpt>
      <trkpt lat="40.467538" lon="-3.323335">
        <ele>782.9</ele>
        <time>2013-06-20T18:07:14Z</time>
      </trkpt>
      <trkpt lat="40.467511" lon="-3.323002">
        <ele>780.3</ele>
        <time>2013-06-20T18:07:19Z</time>
      </trkpt>
      <trkpt lat="40.467515" lon="-3.322611">
        <ele>779.9</ele>
        <time>2013-06-20T18:07:24Z</time>
      </trkpt>
      <trkpt lat="40.467519" lon="-3.322158">
        <ele>780.2</ele>
        <time>2013-06-20T18:07:30Z</time>
      </trkpt>
      <trkpt lat="40.467518" lon="-3.321891">
        <ele>781.4</ele>
        <time>2013-06-20T18:07:34Z</time>
      </trkpt>
      <trkpt lat="40.467546" lon="-3.321427">
        <ele>780.0</ele>
        <time>2013-06-20T18:07:40Z</time>
      </trkpt>
      <trkpt lat="40.467549" lon="-3.320934">
        <ele>779.4</ele>
        <time>2013-06-20T18:07:46Z</time>
      </trkpt>
      <trkpt lat="40.467574" lon="-3.320716">
        <ele>779.8</ele>
        <time>2013-06-20T18:07:49Z</time>
      </trkpt>
      <trkpt lat="40.467577" lon="-3.320418">
        <ele>780.2</ele>
        <time>2013-06-20T18:07:54Z</time>
      </trkpt>
      <trkpt lat="40.46762" lon="-3.320156">
        <ele>781.5</ele>
        <time>2013-06-20T18:07:59Z</time>
      </trkpt>
      <trkpt lat="40.467702" lon="-3.319874">
        <ele>784.2</ele>
        <time>2013-06-20T18:08:04Z</time>
      </trkpt>
      <trkpt lat="40.467812" lon="-3.319511">
        <ele>786.7</ele>
        <time>2013-06-20T18:08:10Z</time>
      </trkpt>
      <trkpt lat="40.467861" lon="-3.319321">
        <ele>787.1</ele>
        <time>2013-06-20T18:08:13Z</time>
      </trkpt>
      <trkpt lat="40.467971" lon="-3.319023">
        <ele>786.4</ele>
        <time>2013-06-20T18:08:18Z</time>
      </trkpt>
      <trkpt lat="40.468111" lon="-3.318675">
        <ele>788.5</ele>
        <time>2013-06-20T18:08:24Z</time>
      </trkpt>
      <trkpt lat="40.468188" lon="-3.318507">
        <ele>787.7</ele>
        <time>2013-06-20T18:08:27Z</time>
      </trkpt>
      <trkpt lat="40.468256" lon="-3.318345">
        <ele>787.1</ele>
        <time>2013-06-20T18:08:30Z</time>
      </trkpt>
      <trkpt lat="40.468364" lon="-3.318031">
        <ele>789.4</ele>
        <time>2013-06-20T18:08:37Z</time>
      </trkpt>
      <trkpt lat="40.468476" lon="-3.317785">
        <ele>791.1</ele>
        <time>2013-06-20T18:08:43Z</time>
      </trkpt>
      <trkpt lat="40.468624" lon="-3.317515">
        <ele>790.9</ele>
        <time>2013-06-20T18:08:50Z</time>
      </trkpt>
      <trkpt lat="40.468783" lon="-3.317281">
        <ele>790.0</ele>
        <time>2013-06-20T18:08:57Z</time>
      </trkpt>
      <trkpt lat="40.46888" lon="-3.317064">
        <ele>792.4</ele>
        <time>2013-06-20T18:09:04Z</time>
      </trkpt>
      <trkpt lat="40.468993" lon="-3.316762">
        <ele>792.0</ele>
        <time>2013-06-20T18:09:13Z</time>
      </trkpt>
      <trkpt lat="40.469058" lon="-3.316604">
        <ele>792.4</ele>
        <time>2013-06-20T18:09:16Z</time>
      </trkpt>
      <trkpt lat="40.469112" lon="-3.316432">
        <ele>791.7</ele>
        <time>2013-06-20T18:09:19Z</time>
      </trkpt>
      <trkpt lat="40.469145" lon="-3.316237">
        <ele>791.2</ele>
        <time>2013-06-20T18:09:22Z</time>
      </trkpt>
      <trkpt lat="40.469165" lon="-3.316014">
        <ele>790.1</ele>
        <time>2013-06-20T18:09:25Z</time>
      </trkpt>
      <trkpt lat="40.469169" lon="-3.315777">
        <ele>789.6</ele>
        <time>2013-06-20T18:09:28Z</time>
      </trkpt>
      <trkpt lat="40.469176" lon="-3.315517">
        <ele>786.7</ele>
        <time>2013-06-20T18:09:31Z</time>
      </trkpt>
      <trkpt lat="40.469161" lon="-3.3149">
        <ele>784.1</ele>
        <time>2013-06-20T18:09:37Z</time>
      </trkpt>
      <trkpt lat="40.469199" lon="-3.314354">
        <ele>782.9</ele>
        <time>2013-06-20T18:09:42Z</time>
      </trkpt>
      <trkpt lat="40.469241" lon="-3.314037">
        <ele>781.8</ele>
        <time>2013-06-20T18:09:45Z</time>
      </trkpt>
      <trkpt lat="40.469307" lon="-3.313378">
        <ele>781.9</ele>
        <time>2013-06-20T18:09:51Z</time>
      </trkpt>
      <trkpt lat="40.469357" lon="-3.313069">
        <ele>782.0</ele>
        <time>2013-06-20T18:09:54Z</time>
      </trkpt>
      <trkpt lat="40.469387" lon="-3.312622">
        <ele>782.4</ele>
        <time>2013-06-20T18:09:59Z</time>
      </trkpt>
      <trkpt lat="40.469433" lon="-3.312203">
        <ele>783.7</ele>
        <time>2013-06-20T18:10:05Z</time>
      </trkpt>
      <trkpt lat="40.4694" lon="-3.311893">
        <ele>783.3</ele>
        <time>2013-06-20T18:10:11Z</time>
      </trkpt>
      <trkpt lat="40.46942" lon="-3.311664">
        <ele>781.1</ele>
        <time>2013-06-20T18:10:15Z</time>
      </trkpt>
      <trkpt lat="40.469478" lon="-3.311362">
        <ele>780.3</ele>
        <time>2013-06-20T18:10:20Z</time>
      </trkpt>
      <trkpt lat="40.469562" lon="-3.31106">
        <ele>781.7</ele>
        <time>2013-06-20T18:10:26Z</time>
      </trkpt>
      <trkpt lat="40.469635" lon="-3.310785">
        <ele>784.9</ele>
        <time>2013-06-20T18:10:32Z</time>
      </trkpt>
      <trkpt lat="40.469694" lon="-3.310536">
        <ele>785.5</ele>
        <time>2013-06-20T18:10:38Z</time>
      </trkpt>
      <trkpt lat="40.469793" lon="-3.310253">
        <ele>784.5</ele>
        <time>2013-06-20T18:10:45Z</time>
      </trkpt>
      <trkpt lat="40.469859" lon="-3.309977">
        <ele>784.7</ele>
        <time>2013-06-20T18:10:50Z</time>
      </trkpt>
      <trkpt lat="40.46989" lon="-3.309793">
        <ele>784.5</ele>
        <time>2013-06-20T18:10:53Z</time>
      </trkpt>
      <trkpt lat="40.469933" lon="-3.309471">
        <ele>784.5</ele>
        <time>2013-06-20T18:10:58Z</time>
      </trkpt>
      <trkpt lat="40.469962" lon="-3.309124">
        <ele>784.9</ele>
        <time>2013-06-20T18:11:03Z</time>
      </trkpt>
      <trkpt lat="40.469961" lon="-3.3087">
        <ele>784.0</ele>
        <time>2013-06-20T18:11:09Z</time>
      </trkpt>
      <trkpt lat="40.469969" lon="-3.308264">
        <ele>783.3</ele>
        <time>2013-06-20T18:11:14Z</time>
      </trkpt>
      <trkpt lat="40.470048" lon="-3.307699">
        <ele>783.1</ele>
        <time>2013-06-20T18:11:20Z</time>
      </trkpt>
      <trkpt lat="40.470081" lon="-3.307353">
        <ele>783.5</ele>
        <time>2013-06-20T18:11:24Z</time>
      </trkpt>
      <trkpt lat="40.470156" lon="-3.306897">
        <ele>784.1</ele>
        <time>2013-06-20T18:11:30Z</time>
      </trkpt>
      <trkpt lat="40.470226" lon="-3.306468">
        <ele>782.0</ele>
        <time>2013-06-20T18:11:36Z</time>
      </trkpt>
      <trkpt lat="40.470291" lon="-3.306117">
        <ele>777.3</ele>
        <time>2013-06-20T18:11:42Z</time>
      </trkpt>
      <trkpt lat="40.470317" lon="-3.305874">
        <ele>778.8</ele>
        <time>2013-06-20T18:11:47Z</time>
      </trkpt>
      <trkpt lat="40.470354" lon="-3.305627">
        <ele>777.8</ele>
        <time>2013-06-20T18:11:53Z</time>
      </trkpt>
      <trkpt lat="40.47038" lon="-3.305417">
        <ele>778.7</ele>
        <time>2013-06-20T18:11:59Z</time>
      </trkpt>
      <trkpt lat="40.470391" lon="-3.305127">
        <ele>781.3</ele>
        <time>2013-06-20T18:12:07Z</time>
      </trkpt>
      <trkpt lat="40.470391" lon="-3.304839">
        <ele>778.5</ele>
        <time>2013-06-20T18:12:14Z</time>
      </trkpt>
      <trkpt lat="40.470381" lon="-3.30453">
        <ele>775.1</ele>
        <time>2013-06-20T18:12:21Z</time>
      </trkpt>
      <trkpt lat="40.470382" lon="-3.304153">
        <ele>774.4</ele>
        <time>2013-06-20T18:12:28Z</time>
      </trkpt>
      <trkpt lat="40.470361" lon="-3.303874">
        <ele>774.1</ele>
        <time>2013-06-20T18:12:33Z</time>
      </trkpt>
      <trkpt lat="40.470353" lon="-3.303521">
        <ele>774.2</ele>
        <time>2013-06-20T18:12:39Z</time>
      </trkpt>
      <trkpt lat="40.470366" lon="-3.303187">
        <ele>774.8</ele>
        <time>2013-06-20T18:12:45Z</time>
      </trkpt>
      <trkpt lat="40.470374" lon="-3.302971">
        <ele>774.6</ele>
        <time>2013-06-20T18:12:49Z</time>
      </trkpt>
      <trkpt lat="40.470389" lon="-3.302806">
        <ele>774.8</ele>
        <time>2013-06-20T18:12:52Z</time>
      </trkpt>
      <trkpt lat="40.470392" lon="-3.302624">
        <ele>773.7</ele>
        <time>2013-06-20T18:12:55Z</time>
      </trkpt>
      <trkpt lat="40.470407" lon="-3.302386">
        <ele>772.4</ele>
        <time>2013-06-20T18:13:00Z</time>
      </trkpt>
      <trkpt lat="40.470411" lon="-3.302011">
        <ele>770.4</ele>
        <time>2013-06-20T18:13:07Z</time>
      </trkpt>
      <trkpt lat="40.470389" lon="-3.30168">
        <ele>773.1</ele>
        <time>2013-06-20T18:13:13Z</time>
      </trkpt>
      <trkpt lat="40.470392" lon="-3.3015">
        <ele>773.8</ele>
        <time>2013-06-20T18:13:16Z</time>
      </trkpt>
      <trkpt lat="40.4704" lon="-3.301201">
        <ele>774.6</ele>
        <time>2013-06-20T18:13:21Z</time>
      </trkpt>
      <trkpt lat="40.470406" lon="-3.301028">
        <ele>774.5</ele>
        <time>2013-06-20T18:13:24Z</time>
      </trkpt>
      <trkpt lat="40.470417" lon="-3.300855">
        <ele>774.9</ele>
        <time>2013-06-20T18:13:27Z</time>
      </trkpt>
      <trkpt lat="40.470444" lon="-3.300585">
        <ele>774.9</ele>
        <time>2013-06-20T18:13:32Z</time>
      </trkpt>
      <trkpt lat="40.470481" lon="-3.300193">
        <ele>777.1</ele>
        <time>2013-06-20T18:13:40Z</time>
      </trkpt>
      <trkpt lat="40.470502" lon="-3.299958">
        <ele>776.2</ele>
        <time>2013-06-20T18:13:45Z</time>
      </trkpt>
      <trkpt lat="40.470537" lon="-3.299681">
        <ele>776.3</ele>
        <time>2013-06-20T18:13:51Z</time>
      </trkpt>
      <trkpt lat="40.470556" lon="-3.299541">
        <ele>778.5</ele>
        <time>2013-06-20T18:13:54Z</time>
      </trkpt>
      <trkpt lat="40.470566" lon="-3.299219">
        <ele>779.2</ele>
        <time>2013-06-20T18:14:01Z</time>
      </trkpt>
      <trkpt lat="40.470576" lon="-3.298992">
        <ele>778.5</ele>
        <time>2013-06-20T18:14:06Z</time>
      </trkpt>
      <trkpt lat="40.470618" lon="-3.298711">
        <ele>777.8</ele>
        <time>2013-06-20T18:14:13Z</time>
      </trkpt>
      <trkpt lat="40.470652" lon="-3.298413">
        <ele>781.1</ele>
        <time>2013-06-20T18:14:20Z</time>
      </trkpt>
      <trkpt lat="40.470703" lon="-3.298156">
        <ele>783.1</ele>
        <time>2013-06-20T18:14:26Z</time>
      </trkpt>
      <trkpt lat="40.470728" lon="-3.298016">
        <ele>783.4</ele>
        <time>2013-06-20T18:14:29Z</time>
      </trkpt>
      <trkpt lat="40.4708" lon="-3.297718">
        <ele>786.6</ele>
        <time>2013-06-20T18:14:36Z</time>
      </trkpt>
      <trkpt lat="40.470892" lon="-3.297431">
        <ele>786.2</ele>
        <time>2013-06-20T18:14:43Z</time>
      </trkpt>
      <trkpt lat="40.470986" lon="-3.297234">
        <ele>787.3</ele>
        <time>2013-06-20T18:14:49Z</time>
      </trkpt>
      <trkpt lat="40.471107" lon="-3.297031">
        <ele>785.2</ele>
        <time>2013-06-20T18:14:57Z</time>
      </trkpt>
      <trkpt lat="40.471209" lon="-3.296821">
        <ele>787.2</ele>
        <time>2013-06-20T18:15:05Z</time>
      </trkpt>
      <trkpt lat="40.471331" lon="-3.29681">
        <ele>788.5</ele>
        <time>2013-06-20T18:15:15Z</time>
      </trkpt>
      <trkpt lat="40.471485" lon="-3.297268">
        <ele>787.9</ele>
        <time>2013-06-20T18:15:26Z</time>
      </trkpt>
      <trkpt lat="40.471585" lon="-3.297516">
        <ele>789.5</ele>
        <time>2013-06-20T18:15:33Z</time>
      </trkpt>
      <trkpt lat="40.471657" lon="-3.297712">
        <ele>792.3</ele>
        <time>2013-06-20T18:15:40Z</time>
      </trkpt>
      <trkpt lat="40.47175" lon="-3.297992">
        <ele>794.8</ele>
        <time>2013-06-20T18:15:50Z</time>
      </trkpt>
      <trkpt lat="40.471785" lon="-3.298084">
        <ele>795.0</ele>
        <time>2013-06-20T18:15:53Z</time>
      </trkpt>
      <trkpt lat="40.471905" lon="-3.298369">
        <ele>796.4</ele>
        <time>2013-06-20T18:16:01Z</time>
      </trkpt>
      <trkpt lat="40.472012" lon="-3.298702">
        <ele>797.8</ele>
        <time>2013-06-20T18:16:08Z</time>
      </trkpt>
      <trkpt lat="40.472147" lon="-3.298985">
        <ele>797.4</ele>
        <time>2013-06-20T18:16:14Z</time>
      </trkpt>
      <trkpt lat="40.472276" lon="-3.299171">
        <ele>796.6</ele>
        <time>2013-06-20T18:16:19Z</time>
      </trkpt>
      <trkpt lat="40.47243" lon="-3.299413">
        <ele>794.0</ele>
        <time>2013-06-20T18:16:25Z</time>
      </trkpt>
      <trkpt lat="40.472567" lon="-3.29975">
        <ele>791.2</ele>
        <time>2013-06-20T18:16:31Z</time>
      </trkpt>
      <trkpt lat="40.472714" lon="-3.300044">
        <ele>790.9</ele>
        <time>2013-06-20T18:16:37Z</time>
      </trkpt>
      <trkpt lat="40.472839" lon="-3.300304">
        <ele>790.0</ele>
        <time>2013-06-20T18:16:43Z</time>
      </trkpt>
      <trkpt lat="40.472933" lon="-3.30049">
        <ele>790.8</ele>
        <time>2013-06-20T18:16:49Z</time>
      </trkpt>
      <trkpt lat="40.472994" lon="-3.300602">
        <ele>790.1</ele>
        <time>2013-06-20T18:16:53Z</time>
      </trkpt>
      <trkpt lat="40.473069" lon="-3.300749">
        <ele>790.7</ele>
        <time>2013-06-20T18:16:58Z</time>
      </trkpt>
      <trkpt lat="40.473221" lon="-3.300986">
        <ele>791.9</ele>
        <time>2013-06-20T18:17:06Z</time>
      </trkpt>
      <trkpt lat="40.473282" lon="-3.30108">
        <ele>792.5</ele>
        <time>2013-06-20T18:17:09Z</time>
      </trkpt>
      <trkpt lat="40.473342" lon="-3.301179">
        <ele>792.5</ele>
        <time>2013-06-20T18:17:12Z</time>
      </trkpt>
      <trkpt lat="40.47345" lon="-3.301379">
        <ele>793.9</ele>
        <time>2013-06-20T18:17:18Z</time>
      </trkpt>
      <trkpt lat="40.47358" lon="-3.301597">
        <ele>794.7</ele>
        <time>2013-06-20T18:17:25Z</time>
      </trkpt>
      <trkpt lat="40.473707" lon="-3.301808">
        <ele>794.8</ele>
        <time>2013-06-20T18:17:32Z</time>
      </trkpt>
      <trkpt lat="40.47384" lon="-3.30198">
        <ele>796.4</ele>
        <time>2013-06-20T18:17:40Z</time>
      </trkpt>
      <trkpt lat="40.473951" lon="-3.302141">
        <ele>798.9</ele>
        <time>2013-06-20T18:17:48Z</time>
      </trkpt>
      <trkpt lat="40.474088" lon="-3.302387">
        <ele>803.1</ele>
        <time>2013-06-20T18:18:00Z</time>
      </trkpt>
      <trkpt lat="40.474142" lon="-3.302664">
        <ele>801.0</ele>
        <time>2013-06-20T18:18:10Z</time>
      </trkpt>
      <trkpt lat="40.474142" lon="-3.302827">
        <ele>799.0</ele>
        <time>2013-06-20T18:18:15Z</time>
      </trkpt>
      <trkpt lat="40.474133" lon="-3.303062">
        <ele>799.4</ele>
        <time>2013-06-20T18:18:23Z</time>
      </trkpt>
      <trkpt lat="40.474127" lon="-3.303149">
        <ele>799.7</ele>
        <time>2013-06-20T18:18:26Z</time>
      </trkpt>
      <trkpt lat="40.474124" lon="-3.30324">
        <ele>799.6</ele>
        <time>2013-06-20T18:18:29Z</time>
      </trkpt>
      <trkpt lat="40.474121" lon="-3.303542">
        <ele>800.0</ele>
        <time>2013-06-20T18:18:39Z</time>
      </trkpt>
      <trkpt lat="40.474122" lon="-3.303718">
        <ele>802.5</ele>
        <time>2013-06-20T18:18:45Z</time>
      </trkpt>
      <trkpt lat="40.474167" lon="-3.303878">
        <ele>804.2</ele>
        <time>2013-06-20T18:18:51Z</time>
      </trkpt>
      <trkpt lat="40.474195" lon="-3.303945">
        <ele>805.6</ele>
        <time>2013-06-20T18:18:54Z</time>
      </trkpt>
      <trkpt lat="40.474225" lon="-3.304007">
        <ele>805.9</ele>
        <time>2013-06-20T18:18:57Z</time>
      </trkpt>
      <trkpt lat="40.474265" lon="-3.304091">
        <ele>806.3</ele>
        <time>2013-06-20T18:19:01Z</time>
      </trkpt>
      <trkpt lat="40.474305" lon="-3.304167">
        <ele>806.5</ele>
        <time>2013-06-20T18:19:04Z</time>
      </trkpt>
      <trkpt lat="40.474357" lon="-3.30433">
        <ele>805.3</ele>
        <time>2013-06-20T18:19:07Z</time>
      </trkpt>
      <trkpt lat="40.474391" lon="-3.304543">
        <ele>804.6</ele>
        <time>2013-06-20T18:19:10Z</time>
      </trkpt>
      <trkpt lat="40.474425" lon="-3.304786">
        <ele>803.3</ele>
        <time>2013-06-20T18:19:13Z</time>
      </trkpt>
      <trkpt lat="40.474461" lon="-3.305187">
        <ele>801.7</ele>
        <time>2013-06-20T18:19:20Z</time>
      </trkpt>
      <trkpt lat="40.474545" lon="-3.305413">
        <ele>802.7</ele>
        <time>2013-06-20T18:19:26Z</time>
      </trkpt>
      <trkpt lat="40.47464" lon="-3.305582">
        <ele>801.1</ele>
        <time>2013-06-20T18:19:31Z</time>
      </trkpt>
      <trkpt lat="40.474842" lon="-3.305893">
        <ele>801.2</ele>
        <time>2013-06-20T18:19:38Z</time>
      </trkpt>
      <trkpt lat="40.474932" lon="-3.306048">
        <ele>800.1</ele>
        <time>2013-06-20T18:19:41Z</time>
      </trkpt>
      <trkpt lat="40.475008" lon="-3.306159">
        <ele>801.4</ele>
        <time>2013-06-20T18:19:45Z</time>
      </trkpt>
      <trkpt lat="40.475072" lon="-3.306286">
        <ele>802.0</ele>
        <time>2013-06-20T18:19:51Z</time>
      </trkpt>
      <trkpt lat="40.475207" lon="-3.30654">
        <ele>803.5</ele>
        <time>2013-06-20T18:20:01Z</time>
      </trkpt>
      <trkpt lat="40.475338" lon="-3.30682">
        <ele>803.3</ele>
        <time>2013-06-20T18:20:10Z</time>
      </trkpt>
      <trkpt lat="40.47544" lon="-3.307048">
        <ele>803.0</ele>
        <time>2013-06-20T18:20:17Z</time>
      </trkpt>
      <trkpt lat="40.475505" lon="-3.307292">
        <ele>802.8</ele>
        <time>2013-06-20T18:20:24Z</time>
      </trkpt>
      <trkpt lat="40.475536" lon="-3.307569">
        <ele>800.6</ele>
        <time>2013-06-20T18:20:32Z</time>
      </trkpt>
      <trkpt lat="40.475521" lon="-3.307909">
        <ele>796.9</ele>
        <time>2013-06-20T18:20:40Z</time>
      </trkpt>
      <trkpt lat="40.475481" lon="-3.308336">
        <ele>794.7</ele>
        <time>2013-06-20T18:20:46Z</time>
      </trkpt>
      <trkpt lat="40.475433" lon="-3.308657">
        <ele>792.6</ele>
        <time>2013-06-20T18:20:52Z</time>
      </trkpt>
      <trkpt lat="40.475408" lon="-3.308892">
        <ele>790.5</ele>
        <time>2013-06-20T18:20:57Z</time>
      </trkpt>
      <trkpt lat="40.475389" lon="-3.309112">
        <ele>789.8</ele>
        <time>2013-06-20T18:21:02Z</time>
      </trkpt>
      <trkpt lat="40.475331" lon="-3.309415">
        <ele>790.2</ele>
        <time>2013-06-20T18:21:09Z</time>
      </trkpt>
      <trkpt lat="40.475322" lon="-3.309528">
        <ele>790.4</ele>
        <time>2013-06-20T18:21:12Z</time>
      </trkpt>
      <trkpt lat="40.475303" lon="-3.309817">
        <ele>790.0</ele>
        <time>2013-06-20T18:21:20Z</time>
      </trkpt>
      <trkpt lat="40.475255" lon="-3.310097">
        <ele>792.1</ele>
        <time>2013-06-20T18:21:27Z</time>
      </trkpt>
      <trkpt lat="40.475208" lon="-3.31038">
        <ele>791.2</ele>
        <time>2013-06-20T18:21:34Z</time>
      </trkpt>
      <trkpt lat="40.475153" lon="-3.310704">
        <ele>788.9</ele>
        <time>2013-06-20T18:21:41Z</time>
      </trkpt>
      <trkpt lat="40.475042" lon="-3.310947">
        <ele>787.0</ele>
        <time>2013-06-20T18:21:50Z</time>
      </trkpt>
      <trkpt lat="40.475042" lon="-3.310947">
        <ele>787.0</ele>
        <time>2013-06-20T18:21:58Z</time>
      </trkpt>
      <trkpt lat="40.475042" lon="-3.310947">
        <time>2013-06-20T18:21:58Z</time>
      </trkpt>
    </trkseg>
    <trkseg>
      <trkpt lat="40.475042" lon="-3.310947">
        <time>2013-06-20T18:28:46Z</time>
      </trkpt>
      <trkpt lat="40.475072" lon="-3.310735">
        <ele>783.4</ele>
        <time>2013-06-20T18:28:46Z</time>
      </trkpt>
      <trkpt lat="40.475118" lon="-3.31046">
        <ele>789.4</ele>
        <time>2013-06-20T18:28:54Z</time>
      </trkpt>
      <trkpt lat="40.47513" lon="-3.310369">
        <ele>791.2</ele>
        <time>2013-06-20T18:28:57Z</time>
      </trkpt>
      <trkpt lat="40.475166" lon="-3.310203">
        <ele>793.3</ele>
        <time>2013-06-20T18:29:06Z</time>
      </trkpt>
      <trkpt lat="40.475184" lon="-3.310095">
        <ele>794.1</ele>
        <time>2013-06-20T18:29:10Z</time>
      </trkpt>
      <trkpt lat="40.475184" lon="-3.310095">
        <time>2013-06-20T18:29:17Z</time>
      </trkpt>
    </trkseg>
    <trkseg>
      <trkpt lat="40.475184" lon="-3.310095">
        <time>2013-06-20T18:29:46Z</time>
      </trkpt>
      <trkpt lat="40.475228" lon="-3.309923">
        <ele>793.0</ele>
        <time>2013-06-20T18:29:46Z</time>
      </trkpt>
      <trkpt lat="40.475269" lon="-3.309574">
        <ele>794.8</ele>
        <time>2013-06-20T18:29:52Z</time>
      </trkpt>
      <trkpt lat="40.475324" lon="-3.309169">
        <ele>793.6</ele>
        <time>2013-06-20T18:29:58Z</time>
      </trkpt>
      <trkpt lat="40.47538" lon="-3.308796">
        <ele>794.9</ele>
        <time>2013-06-20T18:30:04Z</time>
      </trkpt>
      <trkpt lat="40.475426" lon="-3.308512">
        <ele>794.5</ele>
        <time>2013-06-20T18:30:10Z</time>
      </trkpt>
      <trkpt lat="40.475465" lon="-3.308304">
        <ele>795.1</ele>
        <time>2013-06-20T18:30:15Z</time>
      </trkpt>
      <trkpt lat="40.475489" lon="-3.308033">
        <ele>798.9</ele>
        <time>2013-06-20T18:30:22Z</time>
      </trkpt>
      <trkpt lat="40.475508" lon="-3.307732">
        <ele>800.7</ele>
        <time>2013-06-20T18:30:30Z</time>
      </trkpt>
      <trkpt lat="40.475509" lon="-3.307639">
        <ele>800.3</ele>
        <time>2013-06-20T18:30:33Z</time>
      </trkpt>
      <trkpt lat="40.475509" lon="-3.307535">
        <ele>799.3</ele>
        <time>2013-06-20T18:30:36Z</time>
      </trkpt>
      <trkpt lat="40.475495" lon="-3.307422">
        <ele>798.3</ele>
        <time>2013-06-20T18:30:39Z</time>
      </trkpt>
      <trkpt lat="40.475432" lon="-3.307077">
        <ele>797.7</ele>
        <time>2013-06-20T18:30:48Z</time>
      </trkpt>
      <trkpt lat="40.475303" lon="-3.306823">
        <ele>796.6</ele>
        <time>2013-06-20T18:30:56Z</time>
      </trkpt>
      <trkpt lat="40.475188" lon="-3.306587">
        <ele>796.2</ele>
        <time>2013-06-20T18:31:03Z</time>
      </trkpt>
      <trkpt lat="40.475061" lon="-3.306325">
        <ele>796.4</ele>
        <time>2013-06-20T18:31:10Z</time>
      </trkpt>
      <trkpt lat="40.474912" lon="-3.306039">
        <ele>796.1</ele>
        <time>2013-06-20T18:31:17Z</time>
      </trkpt>
      <trkpt lat="40.474773" lon="-3.305782">
        <ele>792.6</ele>
        <time>2013-06-20T18:31:24Z</time>
      </trkpt>
      <trkpt lat="40.474657" lon="-3.305591">
        <ele>792.7</ele>
        <time>2013-06-20T18:31:30Z</time>
      </trkpt>
      <trkpt lat="40.474547" lon="-3.305375">
        <ele>795.9</ele>
        <time>2013-06-20T18:31:37Z</time>
      </trkpt>
      <trkpt lat="40.474502" lon="-3.305242">
        <ele>795.6</ele>
        <time>2013-06-20T18:31:41Z</time>
      </trkpt>
      <trkpt lat="40.474445" lon="-3.304948">
        <ele>796.9</ele>
        <time>2013-06-20T18:31:49Z</time>
      </trkpt>
      <trkpt lat="40.47443" lon="-3.304689">
        <ele>799.4</ele>
        <time>2013-06-20T18:31:55Z</time>
      </trkpt>
      <trkpt lat="40.474399" lon="-3.304441">
        <ele>801.2</ele>
        <time>2013-06-20T18:32:01Z</time>
      </trkpt>
      <trkpt lat="40.474314" lon="-3.304151">
        <ele>801.7</ele>
        <time>2013-06-20T18:32:09Z</time>
      </trkpt>
      <trkpt lat="40.474267" lon="-3.304066">
        <ele>800.5</ele>
        <time>2013-06-20T18:32:12Z</time>
      </trkpt>
      <trkpt lat="40.474187" lon="-3.303845">
        <ele>796.3</ele>
        <time>2013-06-20T18:32:19Z</time>
      </trkpt>
      <trkpt lat="40.474125" lon="-3.303378">
        <ele>797.0</ele>
        <time>2013-06-20T18:32:26Z</time>
      </trkpt>
      <trkpt lat="40.474152" lon="-3.303147">
        <ele>793.9</ele>
        <time>2013-06-20T18:32:29Z</time>
      </trkpt>
      <trkpt lat="40.47417" lon="-3.302929">
        <ele>794.3</ele>
        <time>2013-06-20T18:32:32Z</time>
      </trkpt>
      <trkpt lat="40.474166" lon="-3.302665">
        <ele>794.5</ele>
        <time>2013-06-20T18:32:37Z</time>
      </trkpt>
      <trkpt lat="40.474078" lon="-3.302346">
        <ele>789.3</ele>
        <time>2013-06-20T18:32:42Z</time>
      </trkpt>
      <trkpt lat="40.473771" lon="-3.301855">
        <ele>782.8</ele>
        <time>2013-06-20T18:32:48Z</time>
      </trkpt>
      <trkpt lat="40.473613" lon="-3.301601">
        <ele>780.8</ele>
        <time>2013-06-20T18:32:51Z</time>
      </trkpt>
      <trkpt lat="40.473368" lon="-3.3012">
        <ele>779.7</ele>
        <time>2013-06-20T18:32:56Z</time>
      </trkpt>
      <trkpt lat="40.473115" lon="-3.300791">
        <ele>778.9</ele>
        <time>2013-06-20T18:33:02Z</time>
      </trkpt>
      <trkpt lat="40.473016" lon="-3.300593">
        <ele>779.1</ele>
        <time>2013-06-20T18:33:05Z</time>
      </trkpt>
      <trkpt lat="40.472914" lon="-3.300393">
        <ele>779.9</ele>
        <time>2013-06-20T18:33:08Z</time>
      </trkpt>
      <trkpt lat="40.472806" lon="-3.300164">
        <ele>778.7</ele>
        <time>2013-06-20T18:33:12Z</time>
      </trkpt>
      <trkpt lat="40.472668" lon="-3.299843">
        <ele>778.1</ele>
        <time>2013-06-20T18:33:18Z</time>
      </trkpt>
      <trkpt lat="40.472523" lon="-3.299524">
        <ele>780.0</ele>
        <time>2013-06-20T18:33:24Z</time>
      </trkpt>
      <trkpt lat="40.472412" lon="-3.299346">
        <ele>778.3</ele>
        <time>2013-06-20T18:33:29Z</time>
      </trkpt>
      <trkpt lat="40.472315" lon="-3.299201">
        <ele>777.7</ele>
        <time>2013-06-20T18:33:33Z</time>
      </trkpt>
      <trkpt lat="40.472214" lon="-3.299065">
        <ele>776.8</ele>
        <time>2013-06-20T18:33:37Z</time>
      </trkpt>
      <trkpt lat="40.472091" lon="-3.298807">
        <ele>778.0</ele>
        <time>2013-06-20T18:33:44Z</time>
      </trkpt>
      <trkpt lat="40.472065" lon="-3.298746">
        <ele>778.8</ele>
        <time>2013-06-20T18:33:46Z</time>
      </trkpt>
      <trkpt lat="40.472065" lon="-3.298746">
        <time>2013-06-20T18:33:52Z</time>
      </trkpt>
    </trkseg>
    <trkseg>
      <trkpt lat="40.472065" lon="-3.298746">
        <time>2013-06-20T18:33:59Z</time>
      </trkpt>
      <trkpt lat="40.472258" lon="-3.299013">
        <ele>785.8</ele>
        <time>2013-06-20T18:33:59Z</time>
      </trkpt>
      <trkpt lat="40.472443" lon="-3.29913">
        <ele>790.0</ele>
        <time>2013-06-20T18:34:07Z</time>
      </trkpt>
      <trkpt lat="40.472604" lon="-3.299118">
        <ele>789.8</ele>
        <time>2013-06-20T18:34:14Z</time>
      </trkpt>
      <trkpt lat="40.472759" lon="-3.29908">
        <ele>791.7</ele>
        <time>2013-06-20T18:34:21Z</time>
      </trkpt>
      <trkpt lat="40.472819" lon="-3.299059">
        <ele>793.3</ele>
        <time>2013-06-20T18:34:24Z</time>
      </trkpt>
      <trkpt lat="40.47299" lon="-3.298987">
        <ele>796.8</ele>
        <time>2013-06-20T18:34:33Z</time>
      </trkpt>
      <trkpt lat="40.473055" lon="-3.298964">
        <ele>796.8</ele>
        <time>2013-06-20T18:34:36Z</time>
      </trkpt>
      <trkpt lat="40.473127" lon="-3.298939">
        <ele>796.1</ele>
        <time>2013-06-20T18:34:39Z</time>
      </trkpt>
      <trkpt lat="40.473186" lon="-3.298919">
        <ele>795.5</ele>
        <time>2013-06-20T18:34:42Z</time>
      </trkpt>
      <trkpt lat="40.473245" lon="-3.29891">
        <ele>796.5</ele>
        <time>2013-06-20T18:34:45Z</time>
      </trkpt>
      <trkpt lat="40.473419" lon="-3.298795">
        <ele>800.5</ele>
        <time>2013-06-20T18:34:55Z</time>
      </trkpt>
      <trkpt lat="40.473542" lon="-3.298736">
        <ele>801.1</ele>
        <time>2013-06-20T18:35:05Z</time>
      </trkpt>
      <trkpt lat="40.473542" lon="-3.298736">
        <ele>801.1</ele>
        <time>2013-06-20T18:35:13Z</time>
      </trkpt>
      <trkpt lat="40.473542" lon="-3.298736">
        <time>2013-06-20T18:35:13Z</time>
      </trkpt>
    </trkseg>
    <trkseg>
      <trkpt lat="40.473542" lon="-3.298736">
        <time>2013-06-20T18:40:00Z</time>
      </trkpt>
      <trkpt lat="40.473325" lon="-3.298854">
        <ele>798.9</ele>
        <time>2013-06-20T18:41:01Z</time>
      </trkpt>
      <trkpt lat="40.473022" lon="-3.298983">
        <ele>796.6</ele>
        <time>2013-06-20T18:41:07Z</time>
      </trkpt>
      <trkpt lat="40.472768" lon="-3.299089">
        <ele>794.7</ele>
        <time>2013-06-20T18:41:12Z</time>
      </trkpt>
      <trkpt lat="40.472436" lon="-3.299154">
        <ele>791.1</ele>
        <time>2013-06-20T18:41:18Z</time>
      </trkpt>
      <trkpt lat="40.472215" lon="-3.299021">
        <ele>788.0</ele>
        <time>2013-06-20T18:41:23Z</time>
      </trkpt>
      <trkpt lat="40.472048" lon="-3.298802">
        <ele>786.9</ele>
        <time>2013-06-20T18:41:29Z</time>
      </trkpt>
      <trkpt lat="40.471939" lon="-3.298475">
        <ele>787.1</ele>
        <time>2013-06-20T18:41:35Z</time>
      </trkpt>
      <trkpt lat="40.471854" lon="-3.298208">
        <ele>786.5</ele>
        <time>2013-06-20T18:41:40Z</time>
      </trkpt>
      <trkpt lat="40.471751" lon="-3.297966">
        <ele>787.3</ele>
        <time>2013-06-20T18:41:45Z</time>
      </trkpt>
      <trkpt lat="40.471613" lon="-3.297591">
        <ele>784.9</ele>
        <time>2013-06-20T18:41:51Z</time>
      </trkpt>
      <trkpt lat="40.471471" lon="-3.297229">
        <ele>783.6</ele>
        <time>2013-06-20T18:41:56Z</time>
      </trkpt>
      <trkpt lat="40.471347" lon="-3.296849">
        <ele>783.5</ele>
        <time>2013-06-20T18:42:02Z</time>
      </trkpt>
      <trkpt lat="40.471347" lon="-3.29663">
        <ele>781.8</ele>
        <time>2013-06-20T18:42:07Z</time>
      </trkpt>
      <trkpt lat="40.471405" lon="-3.296346">
        <ele>782.2</ele>
        <time>2013-06-20T18:42:14Z</time>
      </trkpt>
      <trkpt lat="40.471448" lon="-3.296011">
        <ele>782.5</ele>
        <time>2013-06-20T18:42:21Z</time>
      </trkpt>
      <trkpt lat="40.47143" lon="-3.295687">
        <ele>782.0</ele>
        <time>2013-06-20T18:42:28Z</time>
      </trkpt>
      <trkpt lat="40.471374" lon="-3.295185">
        <ele>778.0</ele>
        <time>2013-06-20T18:42:34Z</time>
      </trkpt>
      <trkpt lat="40.471286" lon="-3.294657">
        <ele>778.1</ele>
        <time>2013-06-20T18:42:39Z</time>
      </trkpt>
      <trkpt lat="40.471287" lon="-3.294124">
        <ele>776.5</ele>
        <time>2013-06-20T18:42:44Z</time>
      </trkpt>
      <trkpt lat="40.471265" lon="-3.293545">
        <ele>774.3</ele>
        <time>2013-06-20T18:42:50Z</time>
      </trkpt>
      <trkpt lat="40.471252" lon="-3.293298">
        <ele>774.4</ele>
        <time>2013-06-20T18:42:53Z</time>
      </trkpt>
      <trkpt lat="40.471236" lon="-3.292866">
        <ele>774.4</ele>
        <time>2013-06-20T18:42:58Z</time>
      </trkpt>
      <trkpt lat="40.471217" lon="-3.29231">
        <ele>774.0</ele>
        <time>2013-06-20T18:43:04Z</time>
      </trkpt>
      <trkpt lat="40.471181" lon="-3.291766">
        <ele>773.4</ele>
        <time>2013-06-20T18:43:10Z</time>
      </trkpt>
      <trkpt lat="40.471168" lon="-3.291498">
        <ele>773.9</ele>
        <time>2013-06-20T18:43:13Z</time>
      </trkpt>
      <trkpt lat="40.471153" lon="-3.291256">
        <ele>774.8</ele>
        <time>2013-06-20T18:43:16Z</time>
      </trkpt>
      <trkpt lat="40.471143" lon="-3.290854">
        <ele>775.4</ele>
        <time>2013-06-20T18:43:21Z</time>
      </trkpt>
      <trkpt lat="40.471135" lon="-3.290473">
        <ele>776.2</ele>
        <time>2013-06-20T18:43:26Z</time>
      </trkpt>
      <trkpt lat="40.471141" lon="-3.29006">
        <ele>775.2</ele>
        <time>2013-06-20T18:43:32Z</time>
      </trkpt>
      <trkpt lat="40.471158" lon="-3.289704">
        <ele>773.0</ele>
        <time>2013-06-20T18:43:38Z</time>
      </trkpt>
      <trkpt lat="40.47117" lon="-3.289417">
        <ele>772.5</ele>
        <time>2013-06-20T18:43:43Z</time>
      </trkpt>
      <trkpt lat="40.471191" lon="-3.289102">
        <ele>771.0</ele>
        <time>2013-06-20T18:43:49Z</time>
      </trkpt>
      <trkpt lat="40.471232" lon="-3.288813">
        <ele>774.0</ele>
        <time>2013-06-20T18:43:55Z</time>
      </trkpt>
      <trkpt lat="40.471276" lon="-3.288587">
        <ele>771.5</ele>
        <time>2013-06-20T18:44:01Z</time>
      </trkpt>
      <trkpt lat="40.471312" lon="-3.288315">
        <ele>771.1</ele>
        <time>2013-06-20T18:44:08Z</time>
      </trkpt>
      <trkpt lat="40.47134" lon="-3.288153">
        <ele>767.7</ele>
        <time>2013-06-20T18:44:13Z</time>
      </trkpt>
      <trkpt lat="40.471346" lon="-3.287952">
        <ele>767.2</ele>
        <time>2013-06-20T18:44:19Z</time>
      </trkpt>
      <trkpt lat="40.471346" lon="-3.287835">
        <ele>767.5</ele>
        <time>2013-06-20T18:44:22Z</time>
      </trkpt>
      <trkpt lat="40.471345" lon="-3.287548">
        <ele>766.8</ele>
        <time>2013-06-20T18:44:28Z</time>
      </trkpt>
      <trkpt lat="40.471322" lon="-3.287368">
        <ele>766.5</ele>
        <time>2013-06-20T18:44:32Z</time>
      </trkpt>
      <trkpt lat="40.471284" lon="-3.28714">
        <ele>767.2</ele>
        <time>2013-06-20T18:44:39Z</time>
      </trkpt>
      <trkpt lat="40.471309" lon="-3.286955">
        <ele>767.7</ele>
        <time>2013-06-20T18:44:44Z</time>
      </trkpt>
      <trkpt lat="40.471323" lon="-3.286677">
        <ele>770.3</ele>
        <time>2013-06-20T18:44:52Z</time>
      </trkpt>
      <trkpt lat="40.471411" lon="-3.286326">
        <ele>768.6</ele>
        <time>2013-06-20T18:45:02Z</time>
      </trkpt>
      <trkpt lat="40.471444" lon="-3.286185">
        <ele>769.7</ele>
        <time>2013-06-20T18:45:05Z</time>
      </trkpt>
      <trkpt lat="40.47147" lon="-3.28605">
        <ele>769.6</ele>
        <time>2013-06-20T18:45:08Z</time>
      </trkpt>
      <trkpt lat="40.471536" lon="-3.285798">
        <ele>768.7</ele>
        <time>2013-06-20T18:45:14Z</time>
      </trkpt>
      <trkpt lat="40.471574" lon="-3.285673">
        <ele>767.8</ele>
        <time>2013-06-20T18:45:17Z</time>
      </trkpt>
      <trkpt lat="40.471652" lon="-3.285388">
        <ele>764.9</ele>
        <time>2013-06-20T18:45:24Z</time>
      </trkpt>
      <trkpt lat="40.471675" lon="-3.285266">
        <ele>765.3</ele>
        <time>2013-06-20T18:45:27Z</time>
      </trkpt>
      <trkpt lat="40.47174" lon="-3.285027">
        <ele>764.6</ele>
        <time>2013-06-20T18:45:34Z</time>
      </trkpt>
      <trkpt lat="40.471767" lon="-3.284949">
        <ele>764.0</ele>
        <time>2013-06-20T18:45:37Z</time>
      </trkpt>
      <trkpt lat="40.471788" lon="-3.28487">
        <ele>762.9</ele>
        <time>2013-06-20T18:45:40Z</time>
      </trkpt>
      <trkpt lat="40.471813" lon="-3.284764">
        <ele>763.8</ele>
        <time>2013-06-20T18:45:45Z</time>
      </trkpt>
      <trkpt lat="40.47183" lon="-3.284616">
        <ele>765.3</ele>
        <time>2013-06-20T18:45:53Z</time>
      </trkpt>
      <trkpt lat="40.471827" lon="-3.284577">
        <ele>764.5</ele>
        <time>2013-06-20T18:45:55Z</time>
      </trkpt>
      <trkpt lat="40.471827" lon="-3.284577">
        <time>2013-06-20T18:46:00Z</time>
      </trkpt>
    </trkseg>
    <trkseg>
      <trkpt lat="40.471827" lon="-3.284577">
        <time>2013-06-20T18:46:05Z</time>
      </trkpt>
      <trkpt lat="40.471792" lon="-3.284818">
        <ele>766.2</ele>
        <time>2013-06-20T18:46:05Z</time>
      </trkpt>
      <trkpt lat="40.471664" lon="-3.285225">
        <ele>767.1</ele>
        <time>2013-06-20T18:46:11Z</time>
      </trkpt>
      <trkpt lat="40.471561" lon="-3.285618">
        <ele>767.0</ele>
        <time>2013-06-20T18:46:17Z</time>
      </trkpt>
      <trkpt lat="40.47147" lon="-3.285985">
        <ele>763.8</ele>
        <time>2013-06-20T18:46:23Z</time>
      </trkpt>
      <trkpt lat="40.471354" lon="-3.286402">
        <ele>764.3</ele>
        <time>2013-06-20T18:46:29Z</time>
      </trkpt>
      <trkpt lat="40.471266" lon="-3.286823">
        <ele>766.4</ele>
        <time>2013-06-20T18:46:35Z</time>
      </trkpt>
      <trkpt lat="40.47124" lon="-3.287199">
        <ele>768.4</ele>
        <time>2013-06-20T18:46:40Z</time>
      </trkpt>
      <trkpt lat="40.471297" lon="-3.287628">
        <ele>768.0</ele>
        <time>2013-06-20T18:46:46Z</time>
      </trkpt>
      <trkpt lat="40.471318" lon="-3.288115">
        <ele>769.4</ele>
        <time>2013-06-20T18:46:53Z</time>
      </trkpt>
      <trkpt lat="40.471291" lon="-3.288551">
        <ele>768.2</ele>
        <time>2013-06-20T18:46:59Z</time>
      </trkpt>
      <trkpt lat="40.471243" lon="-3.288773">
        <ele>768.9</ele>
        <time>2013-06-20T18:47:02Z</time>
      </trkpt>
      <trkpt lat="40.471163" lon="-3.289253">
        <ele>768.3</ele>
        <time>2013-06-20T18:47:09Z</time>
      </trkpt>
      <trkpt lat="40.471159" lon="-3.28966">
        <ele>768.7</ele>
        <time>2013-06-20T18:47:15Z</time>
      </trkpt>
      <trkpt lat="40.471151" lon="-3.290171">
        <ele>766.4</ele>
        <time>2013-06-20T18:47:22Z</time>
      </trkpt>
      <trkpt lat="40.471133" lon="-3.290625">
        <ele>768.2</ele>
        <time>2013-06-20T18:47:28Z</time>
      </trkpt>
      <trkpt lat="40.471152" lon="-3.291066">
        <ele>768.5</ele>
        <time>2013-06-20T18:47:34Z</time>
      </trkpt>
      <trkpt lat="40.47116" lon="-3.29129">
        <ele>768.3</ele>
        <time>2013-06-20T18:47:37Z</time>
      </trkpt>
      <trkpt lat="40.47116" lon="-3.291502">
        <ele>768.6</ele>
        <time>2013-06-20T18:47:40Z</time>
      </trkpt>
      <trkpt lat="40.471174" lon="-3.29192">
        <ele>767.6</ele>
        <time>2013-06-20T18:47:46Z</time>
      </trkpt>
      <trkpt lat="40.471198" lon="-3.29217">
        <ele>767.4</ele>
        <time>2013-06-20T18:47:50Z</time>
      </trkpt>
      <trkpt lat="40.471206" lon="-3.292411">
        <ele>769.0</ele>
        <time>2013-06-20T18:47:54Z</time>
      </trkpt>
      <trkpt lat="40.47122" lon="-3.292589">
        <ele>769.1</ele>
        <time>2013-06-20T18:47:57Z</time>
      </trkpt>
      <trkpt lat="40.471223" lon="-3.292782">
        <ele>768.7</ele>
        <time>2013-06-20T18:48:00Z</time>
      </trkpt>
      <trkpt lat="40.471228" lon="-3.293074">
        <ele>770.4</ele>
        <time>2013-06-20T18:48:05Z</time>
      </trkpt>
      <trkpt lat="40.471248" lon="-3.293291">
        <ele>769.8</ele>
        <time>2013-06-20T18:48:09Z</time>
      </trkpt>
      <trkpt lat="40.471273" lon="-3.293547">
        <ele>768.5</ele>
        <time>2013-06-20T18:48:14Z</time>
      </trkpt>
      <trkpt lat="40.471306" lon="-3.293906">
        <ele>769.6</ele>
        <time>2013-06-20T18:48:21Z</time>
      </trkpt>
      <trkpt lat="40.471305" lon="-3.294171">
        <ele>769.8</ele>
        <time>2013-06-20T18:48:26Z</time>
      </trkpt>
      <trkpt lat="40.471294" lon="-3.294325">
        <ele>770.4</ele>
        <time>2013-06-20T18:48:29Z</time>
      </trkpt>
      <trkpt lat="40.471301" lon="-3.294664">
        <ele>771.6</ele>
        <time>2013-06-20T18:48:36Z</time>
      </trkpt>
      <trkpt lat="40.471356" lon="-3.294967">
        <ele>769.5</ele>
        <time>2013-06-20T18:48:43Z</time>
      </trkpt>
      <trkpt lat="40.47139" lon="-3.295241">
        <ele>775.6</ele>
        <time>2013-06-20T18:48:50Z</time>
      </trkpt>
      <trkpt lat="40.471423" lon="-3.295537">
        <ele>778.0</ele>
        <time>2013-06-20T18:48:59Z</time>
      </trkpt>
      <trkpt lat="40.471415" lon="-3.295876">
        <ele>775.4</ele>
        <time>2013-06-20T18:49:08Z</time>
      </trkpt>
      <trkpt lat="40.471366" lon="-3.296122">
        <ele>776.1</ele>
        <time>2013-06-20T18:49:15Z</time>
      </trkpt>
      <trkpt lat="40.471329" lon="-3.296391">
        <ele>778.9</ele>
        <time>2013-06-20T18:49:24Z</time>
      </trkpt>
      <trkpt lat="40.471278" lon="-3.296571">
        <ele>779.7</ele>
        <time>2013-06-20T18:49:30Z</time>
      </trkpt>
      <trkpt lat="40.471223" lon="-3.296763">
        <ele>780.4</ele>
        <time>2013-06-20T18:49:35Z</time>
      </trkpt>
      <trkpt lat="40.471073" lon="-3.297119">
        <ele>778.7</ele>
        <time>2013-06-20T18:49:42Z</time>
      </trkpt>
      <trkpt lat="40.470864" lon="-3.297548">
        <ele>777.5</ele>
        <time>2013-06-20T18:49:48Z</time>
      </trkpt>
      <trkpt lat="40.470718" lon="-3.29802">
        <ele>775.7</ele>
        <time>2013-06-20T18:49:54Z</time>
      </trkpt>
      <trkpt lat="40.47062" lon="-3.29843">
        <ele>776.1</ele>
        <time>2013-06-20T18:49:59Z</time>
      </trkpt>
      <trkpt lat="40.470536" lon="-3.298983">
        <ele>777.0</ele>
        <time>2013-06-20T18:50:05Z</time>
      </trkpt>
      <trkpt lat="40.470505" lon="-3.299554">
        <ele>777.4</ele>
        <time>2013-06-20T18:50:11Z</time>
      </trkpt>
      <trkpt lat="40.470472" lon="-3.299835">
        <ele>776.9</ele>
        <time>2013-06-20T18:50:14Z</time>
      </trkpt>
      <trkpt lat="40.470426" lon="-3.30032">
        <ele>777.8</ele>
        <time>2013-06-20T18:50:19Z</time>
      </trkpt>
      <trkpt lat="40.470394" lon="-3.300632">
        <ele>779.0</ele>
        <time>2013-06-20T18:50:22Z</time>
      </trkpt>
      <trkpt lat="40.470384" lon="-3.300913">
        <ele>779.6</ele>
        <time>2013-06-20T18:50:25Z</time>
      </trkpt>
      <trkpt lat="40.47037" lon="-3.301534">
        <ele>780.7</ele>
        <time>2013-06-20T18:50:31Z</time>
      </trkpt>
      <trkpt lat="40.470377" lon="-3.301829">
        <ele>779.9</ele>
        <time>2013-06-20T18:50:34Z</time>
      </trkpt>
      <trkpt lat="40.470365" lon="-3.302131">
        <ele>780.4</ele>
        <time>2013-06-20T18:50:37Z</time>
      </trkpt>
      <trkpt lat="40.470359" lon="-3.302651">
        <ele>781.3</ele>
        <time>2013-06-20T18:50:42Z</time>
      </trkpt>
      <trkpt lat="40.470369" lon="-3.302952">
        <ele>780.3</ele>
        <time>2013-06-20T18:50:45Z</time>
      </trkpt>
      <trkpt lat="40.470355" lon="-3.303468">
        <ele>780.3</ele>
        <time>2013-06-20T18:50:50Z</time>
      </trkpt>
      <trkpt lat="40.470362" lon="-3.30406">
        <ele>778.6</ele>
        <time>2013-06-20T18:50:56Z</time>
      </trkpt>
      <trkpt lat="40.470365" lon="-3.30435">
        <ele>779.3</ele>
        <time>2013-06-20T18:50:59Z</time>
      </trkpt>
      <trkpt lat="40.470368" lon="-3.304778">
        <ele>780.1</ele>
        <time>2013-06-20T18:51:04Z</time>
      </trkpt>
      <trkpt lat="40.47039" lon="-3.30524">
        <ele>780.3</ele>
        <time>2013-06-20T18:51:10Z</time>
      </trkpt>
      <trkpt lat="40.470339" lon="-3.305633">
        <ele>778.8</ele>
        <time>2013-06-20T18:51:15Z</time>
      </trkpt>
      <trkpt lat="40.47028" lon="-3.306148">
        <ele>777.2</ele>
        <time>2013-06-20T18:51:21Z</time>
      </trkpt>
      <trkpt lat="40.470197" lon="-3.306684">
        <ele>776.1</ele>
        <time>2013-06-20T18:51:27Z</time>
      </trkpt>
      <trkpt lat="40.470145" lon="-3.307099">
        <ele>776.4</ele>
        <time>2013-06-20T18:51:33Z</time>
      </trkpt>
      <trkpt lat="40.470073" lon="-3.307505">
        <ele>777.6</ele>
        <time>2013-06-20T18:51:39Z</time>
      </trkpt>
      <trkpt lat="40.470028" lon="-3.307814">
        <ele>778.7</ele>
        <time>2013-06-20T18:51:44Z</time>
      </trkpt>
      <trkpt lat="40.470011" lon="-3.308055">
        <ele>777.0</ele>
        <time>2013-06-20T18:51:48Z</time>
      </trkpt>
      <trkpt lat="40.46996" lon="-3.30834">
        <ele>776.6</ele>
        <time>2013-06-20T18:51:53Z</time>
      </trkpt>
      <trkpt lat="40.469967" lon="-3.308539">
        <ele>774.4</ele>
        <time>2013-06-20T18:51:57Z</time>
      </trkpt>
      <trkpt lat="40.469972" lon="-3.308746">
        <ele>773.1</ele>
        <time>2013-06-20T18:52:01Z</time>
      </trkpt>
      <trkpt lat="40.469941" lon="-3.309054">
        <ele>773.2</ele>
        <time>2013-06-20T18:52:07Z</time>
      </trkpt>
      <trkpt lat="40.469926" lon="-3.309205">
        <ele>772.5</ele>
        <time>2013-06-20T18:52:10Z</time>
      </trkpt>
      <trkpt lat="40.469911" lon="-3.309351">
        <ele>773.5</ele>
        <time>2013-06-20T18:52:13Z</time>
      </trkpt>
      <trkpt lat="40.469889" lon="-3.309643">
        <ele>775.3</ele>
        <time>2013-06-20T18:52:19Z</time>
      </trkpt>
      <trkpt lat="40.469843" lon="-3.309851">
        <ele>774.2</ele>
        <time>2013-06-20T18:52:23Z</time>
      </trkpt>
      <trkpt lat="40.469809" lon="-3.31">
        <ele>775.0</ele>
        <time>2013-06-20T18:52:26Z</time>
      </trkpt>
      <trkpt lat="40.469778" lon="-3.310137">
        <ele>775.4</ele>
        <time>2013-06-20T18:52:29Z</time>
      </trkpt>
      <trkpt lat="40.469705" lon="-3.310441">
        <ele>775.9</ele>
        <time>2013-06-20T18:52:36Z</time>
      </trkpt>
      <trkpt lat="40.469644" lon="-3.310619">
        <ele>776.6</ele>
        <time>2013-06-20T18:52:40Z</time>
      </trkpt>
      <trkpt lat="40.469523" lon="-3.31098">
        <ele>778.0</ele>
        <time>2013-06-20T18:52:47Z</time>
      </trkpt>
      <trkpt lat="40.469469" lon="-3.311177">
        <ele>777.4</ele>
        <time>2013-06-20T18:52:50Z</time>
      </trkpt>
      <trkpt lat="40.469404" lon="-3.311438">
        <ele>776.6</ele>
        <time>2013-06-20T18:52:54Z</time>
      </trkpt>
      <trkpt lat="40.469356" lon="-3.311846">
        <ele>776.3</ele>
        <time>2013-06-20T18:53:00Z</time>
      </trkpt>
      <trkpt lat="40.46938" lon="-3.312098">
        <ele>774.9</ele>
        <time>2013-06-20T18:53:04Z</time>
      </trkpt>
      <trkpt lat="40.469379" lon="-3.312509">
        <ele>775.5</ele>
        <time>2013-06-20T18:53:10Z</time>
      </trkpt>
      <trkpt lat="40.469361" lon="-3.312786">
        <ele>777.3</ele>
        <time>2013-06-20T18:53:14Z</time>
      </trkpt>
      <trkpt lat="40.469335" lon="-3.312999">
        <ele>778.6</ele>
        <time>2013-06-20T18:53:17Z</time>
      </trkpt>
      <trkpt lat="40.4693" lon="-3.31323">
        <ele>779.7</ele>
        <time>2013-06-20T18:53:20Z</time>
      </trkpt>
      <trkpt lat="40.46925" lon="-3.313646">
        <ele>782.1</ele>
        <time>2013-06-20T18:53:26Z</time>
      </trkpt>
      <trkpt lat="40.469231" lon="-3.313853">
        <ele>781.9</ele>
        <time>2013-06-20T18:53:29Z</time>
      </trkpt>
      <trkpt lat="40.46918" lon="-3.314097">
        <ele>782.4</ele>
        <time>2013-06-20T18:53:33Z</time>
      </trkpt>
      <trkpt lat="40.469161" lon="-3.314285">
        <ele>783.8</ele>
        <time>2013-06-20T18:53:36Z</time>
      </trkpt>
      <trkpt lat="40.469121" lon="-3.314464">
        <ele>784.1</ele>
        <time>2013-06-20T18:53:39Z</time>
      </trkpt>
      <trkpt lat="40.469129" lon="-3.314904">
        <ele>784.5</ele>
        <time>2013-06-20T18:53:46Z</time>
      </trkpt>
      <trkpt lat="40.469145" lon="-3.315259">
        <ele>784.3</ele>
        <time>2013-06-20T18:53:53Z</time>
      </trkpt>
      <trkpt lat="40.469148" lon="-3.315481">
        <ele>783.0</ele>
        <time>2013-06-20T18:53:58Z</time>
      </trkpt>
      <trkpt lat="40.469155" lon="-3.315729">
        <ele>783.5</ele>
        <time>2013-06-20T18:54:04Z</time>
      </trkpt>
      <trkpt lat="40.46915" lon="-3.315864">
        <ele>783.5</ele>
        <time>2013-06-20T18:54:07Z</time>
      </trkpt>
      <trkpt lat="40.469129" lon="-3.316154">
        <ele>787.6</ele>
        <time>2013-06-20T18:54:14Z</time>
      </trkpt>
      <trkpt lat="40.469113" lon="-3.316279">
        <ele>788.0</ele>
        <time>2013-06-20T18:54:17Z</time>
      </trkpt>
      <trkpt lat="40.469092" lon="-3.316412">
        <ele>789.3</ele>
        <time>2013-06-20T18:54:20Z</time>
      </trkpt>
      <trkpt lat="40.469062" lon="-3.316537">
        <ele>791.5</ele>
        <time>2013-06-20T18:54:23Z</time>
      </trkpt>
      <trkpt lat="40.468971" lon="-3.316772">
        <ele>792.8</ele>
        <time>2013-06-20T18:54:29Z</time>
      </trkpt>
      <trkpt lat="40.468905" lon="-3.316949">
        <ele>792.8</ele>
        <time>2013-06-20T18:54:34Z</time>
      </trkpt>
      <trkpt lat="40.468806" lon="-3.317216">
        <ele>791.9</ele>
        <time>2013-06-20T18:54:41Z</time>
      </trkpt>
      <trkpt lat="40.468583" lon="-3.317601">
        <ele>787.5</ele>
        <time>2013-06-20T18:54:48Z</time>
      </trkpt>
      <trkpt lat="40.468412" lon="-3.317929">
        <ele>786.0</ele>
        <time>2013-06-20T18:54:53Z</time>
      </trkpt>
      <trkpt lat="40.468214" lon="-3.31837">
        <ele>786.4</ele>
        <time>2013-06-20T18:54:59Z</time>
      </trkpt>
      <trkpt lat="40.467995" lon="-3.318832">
        <ele>786.5</ele>
        <time>2013-06-20T18:55:05Z</time>
      </trkpt>
      <trkpt lat="40.467831" lon="-3.319281">
        <ele>786.0</ele>
        <time>2013-06-20T18:55:11Z</time>
      </trkpt>
      <trkpt lat="40.467722" lon="-3.319644">
        <ele>784.8</ele>
        <time>2013-06-20T18:55:15Z</time>
      </trkpt>
      <trkpt lat="40.467537" lon="-3.320225">
        <ele>786.4</ele>
        <time>2013-06-20T18:55:22Z</time>
      </trkpt>
      <trkpt lat="40.467489" lon="-3.320806">
        <ele>784.5</ele>
        <time>2013-06-20T18:55:29Z</time>
      </trkpt>
      <trkpt lat="40.467488" lon="-3.321209">
        <ele>787.2</ele>
        <time>2013-06-20T18:55:34Z</time>
      </trkpt>
      <trkpt lat="40.467444" lon="-3.321701">
        <ele>787.8</ele>
        <time>2013-06-20T18:55:40Z</time>
      </trkpt>
      <trkpt lat="40.467449" lon="-3.322151">
        <ele>788.8</ele>
        <time>2013-06-20T18:55:46Z</time>
      </trkpt>
      <trkpt lat="40.467443" lon="-3.322372">
        <ele>790.9</ele>
        <time>2013-06-20T18:55:49Z</time>
      </trkpt>
      <trkpt lat="40.467424" lon="-3.322597">
        <ele>790.0</ele>
        <time>2013-06-20T18:55:52Z</time>
      </trkpt>
      <trkpt lat="40.467419" lon="-3.322821">
        <ele>791.8</ele>
        <time>2013-06-20T18:55:55Z</time>
      </trkpt>
      <trkpt lat="40.467454" lon="-3.323154">
        <ele>794.9</ele>
        <time>2013-06-20T18:56:01Z</time>
      </trkpt>
      <trkpt lat="40.467498" lon="-3.323332">
        <ele>792.4</ele>
        <time>2013-06-20T18:56:06Z</time>
      </trkpt>
      <trkpt lat="40.467569" lon="-3.323472">
        <ele>789.0</ele>
        <time>2013-06-20T18:56:12Z</time>
      </trkpt>
      <trkpt lat="40.467613" lon="-3.323507">
        <ele>789.1</ele>
        <time>2013-06-20T18:56:15Z</time>
      </trkpt>
      <trkpt lat="40.467613" lon="-3.323507">
        <time>2013-06-20T18:56:20Z</time>
      </trkpt>
    </trkseg>
    <trkseg>
      <trkpt lat="40.467613" lon="-3.323507">
        <time>2013-06-20T18:57:58Z</time>
      </trkpt>
      <trkpt lat="40.467814" lon="-3.323723">
        <ele>788.9</ele>
        <time>2013-06-20T18:57:58Z</time>
      </trkpt>
      <trkpt lat="40.467907" lon="-3.32387">
        <ele>792.3</ele>
        <time>2013-06-20T18:58:13Z</time>
      </trkpt>
      <trkpt lat="40.468077" lon="-3.324044">
        <ele>799.4</ele>
        <time>2013-06-20T18:58:37Z</time>
      </trkpt>
      <trkpt lat="40.468353" lon="-3.324078">
        <ele>803.1</ele>
        <time>2013-06-20T18:58:50Z</time>
      </trkpt>
      <trkpt lat="40.468488" lon="-3.324072">
        <ele>800.7</ele>
        <time>2013-06-20T18:58:56Z</time>
      </trkpt>
      <trkpt lat="40.468588" lon="-3.324046">
        <ele>803.4</ele>
        <time>2013-06-20T18:59:01Z</time>
      </trkpt>
      <trkpt lat="40.468673" lon="-3.324046">
        <ele>802.3</ele>
        <time>2013-06-20T18:59:06Z</time>
      </trkpt>
      <trkpt lat="40.468673" lon="-3.324046">
        <time>2013-06-20T18:59:13Z</time>
      </trkpt>
    </trkseg>
    <trkseg>
      <trkpt lat="40.468673" lon="-3.324046">
        <time>2013-06-20T19:03:05Z</time>
      </trkpt>
      <trkpt lat="40.468452" lon="-3.324118">
        <ele>788.0</ele>
        <time>2013-06-20T19:03:05Z</time>
      </trkpt>
      <trkpt lat="40.468312" lon="-3.324125">
        <ele>785.5</ele>
        <time>2013-06-20T19:03:08Z</time>
      </trkpt>
      <trkpt lat="40.468086" lon="-3.324094">
        <ele>780.8</ele>
        <time>2013-06-20T19:03:14Z</time>
      </trkpt>
      <trkpt lat="40.467882" lon="-3.3239">
        <ele>776.3</ele>
        <time>2013-06-20T19:03:21Z</time>
      </trkpt>
      <trkpt lat="40.467783" lon="-3.323755">
        <ele>772.8</ele>
        <time>2013-06-20T19:03:28Z</time>
      </trkpt>
      <trkpt lat="40.467632" lon="-3.323569">
        <ele>769.2</ele>
        <time>2013-06-20T19:03:40Z</time>
      </trkpt>
      <trkpt lat="40.467503" lon="-3.323497">
        <ele>769.1</ele>
        <time>2013-06-20T19:03:44Z</time>
      </trkpt>
      <trkpt lat="40.467503" lon="-3.323497">
        <time>2013-06-20T19:03:51Z</time>
      </trkpt>
    </trkseg>
    <trkseg>
      <trkpt lat="40.467503" lon="-3.323497">
        <time>2013-06-20T19:03:57Z</time>
      </trkpt>
      <trkpt lat="40.467615" lon="-3.323827">
        <ele>769.5</ele>
        <time>2013-06-20T19:03:57Z</time>
      </trkpt>
      <trkpt lat="40.467643" lon="-3.324028">
        <ele>769.4</ele>
        <time>2013-06-20T19:04:00Z</time>
      </trkpt>
      <trkpt lat="40.467694" lon="-3.32427">
        <ele>768.7</ele>
        <time>2013-06-20T19:04:03Z</time>
      </trkpt>
      <trkpt lat="40.467887" lon="-3.324797">
        <ele>767.1</ele>
        <time>2013-06-20T19:04:09Z</time>
      </trkpt>
      <trkpt lat="40.46803" lon="-3.325331">
        <ele>766.5</ele>
        <time>2013-06-20T19:04:15Z</time>
      </trkpt>
      <trkpt lat="40.468298" lon="-3.325748">
        <ele>760.3</ele>
        <time>2013-06-20T19:04:21Z</time>
      </trkpt>
      <trkpt lat="40.468427" lon="-3.325932">
        <ele>759.2</ele>
        <time>2013-06-20T19:04:27Z</time>
      </trkpt>
      <trkpt lat="40.468615" lon="-3.326047">
        <ele>759.1</ele>
        <time>2013-06-20T19:04:35Z</time>
      </trkpt>
      <trkpt lat="40.469018" lon="-3.326117">
        <ele>759.3</ele>
        <time>2013-06-20T19:04:43Z</time>
      </trkpt>
      <trkpt lat="40.469371" lon="-3.326228">
        <ele>757.8</ele>
        <time>2013-06-20T19:04:49Z</time>
      </trkpt>
      <trkpt lat="40.469786" lon="-3.326328">
        <ele>754.7</ele>
        <time>2013-06-20T19:04:55Z</time>
      </trkpt>
      <trkpt lat="40.470149" lon="-3.32639">
        <ele>751.8</ele>
        <time>2013-06-20T19:05:00Z</time>
      </trkpt>
      <trkpt lat="40.470299" lon="-3.326486">
        <ele>748.8</ele>
        <time>2013-06-20T19:05:03Z</time>
      </trkpt>
      <trkpt lat="40.470571" lon="-3.326749">
        <ele>745.4</ele>
        <time>2013-06-20T19:05:09Z</time>
      </trkpt>
      <trkpt lat="40.470728" lon="-3.326879">
        <ele>745.8</ele>
        <time>2013-06-20T19:05:14Z</time>
      </trkpt>
      <trkpt lat="40.470983" lon="-3.327061">
        <ele>746.5</ele>
        <time>2013-06-20T19:05:21Z</time>
      </trkpt>
      <trkpt lat="40.470998" lon="-3.327077">
        <ele>746.4</ele>
        <time>2013-06-20T19:05:22Z</time>
      </trkpt>
      <trkpt lat="40.470998" lon="-3.327077">
        <time>2013-06-20T19:05:27Z</time>
      </trkpt>
    </trkseg>
    <trkseg>
      <trkpt lat="40.470998" lon="-3.327077">
        <time>2013-06-20T19:06:14Z</time>
      </trkpt>
      <trkpt lat="40.471161" lon="-3.327311">
        <ele>740.3</ele>
        <time>2013-06-20T19:06:14Z</time>
      </trkpt>
      <trkpt lat="40.471235" lon="-3.327538">
        <ele>740.1</ele>
        <time>2013-06-20T19:06:19Z</time>
      </trkpt>
      <trkpt lat="40.471268" lon="-3.32771">
        <ele>737.6</ele>
        <time>2013-06-20T19:06:27Z</time>
      </trkpt>
      <trkpt lat="40.471373" lon="-3.327891">
        <ele>735.3</ele>
        <time>2013-06-20T19:06:36Z</time>
      </trkpt>
      <trkpt lat="40.471468" lon="-3.328113">
        <ele>729.2</ele>
        <time>2013-06-20T19:06:47Z</time>
      </trkpt>
      <trkpt lat="40.471468" lon="-3.328113">
        <ele>729.2</ele>
        <time>2013-06-20T19:06:52Z</time>
      </trkpt>
      <trkpt lat="40.471468" lon="-3.328113">
        <time>2013-06-20T19:06:52Z</time>
      </trkpt>
    </trkseg>
    <trkseg>
      <trkpt lat="40.471468" lon="-3.328113">
        <time>2013-06-20T19:07:00Z</time>
      </trkpt>
      <trkpt lat="40.471599" lon="-3.328284">
        <ele>727.4</ele>
        <time>2013-06-20T19:07:00Z</time>
      </trkpt>
      <trkpt lat="40.471836" lon="-3.328453">
        <ele>725.2</ele>
        <time>2013-06-20T19:07:09Z</time>
      </trkpt>
      <trkpt lat="40.472006" lon="-3.328566">
        <ele>723.8</ele>
        <time>2013-06-20T19:07:14Z</time>
      </trkpt>
      <trkpt lat="40.472223" lon="-3.328738">
        <ele>720.2</ele>
        <time>2013-06-20T19:07:21Z</time>
      </trkpt>
      <trkpt lat="40.472455" lon="-3.328668">
        <ele>720.8</ele>
        <time>2013-06-20T19:07:29Z</time>
      </trkpt>
      <trkpt lat="40.472677" lon="-3.3286">
        <ele>719.8</ele>
        <time>2013-06-20T19:07:38Z</time>
      </trkpt>
      <trkpt lat="40.47277" lon="-3.328723">
        <ele>716.9</ele>
        <time>2013-06-20T19:07:45Z</time>
      </trkpt>
      <trkpt lat="40.472736" lon="-3.328846">
        <ele>717.8</ele>
        <time>2013-06-20T19:07:50Z</time>
      </trkpt>
      <trkpt lat="40.472991" lon="-3.329049">
        <ele>712.8</ele>
        <time>2013-06-20T19:08:02Z</time>
      </trkpt>
      <trkpt lat="40.472886" lon="-3.329335">
        <ele>713.8</ele>
        <time>2013-06-20T19:08:08Z</time>
      </trkpt>
      <trkpt lat="40.472939" lon="-3.32961">
        <ele>709.2</ele>
        <time>2013-06-20T19:08:15Z</time>
      </trkpt>
      <trkpt lat="40.472755" lon="-3.32967">
        <ele>708.1</ele>
        <time>2013-06-20T19:08:21Z</time>
      </trkpt>
      <trkpt lat="40.472732" lon="-3.329812">
        <ele>705.6</ele>
        <time>2013-06-20T19:08:27Z</time>
      </trkpt>
      <trkpt lat="40.472942" lon="-3.330125">
        <ele>705.6</ele>
        <time>2013-06-20T19:08:34Z</time>
      </trkpt>
      <trkpt lat="40.472684" lon="-3.330173">
        <ele>710.2</ele>
        <time>2013-06-20T19:08:40Z</time>
      </trkpt>
      <trkpt lat="40.472486" lon="-3.330261">
        <ele>708.2</ele>
        <time>2013-06-20T19:08:46Z</time>
      </trkpt>
      <trkpt lat="40.472323" lon="-3.330601">
        <ele>706.2</ele>
        <time>2013-06-20T19:08:55Z</time>
      </trkpt>
      <trkpt lat="40.472442" lon="-3.330816">
        <ele>702.3</ele>
        <time>2013-06-20T19:09:02Z</time>
      </trkpt>
      <trkpt lat="40.472649" lon="-3.330881">
        <ele>704.0</ele>
        <time>2013-06-20T19:09:08Z</time>
      </trkpt>
      <trkpt lat="40.47255" lon="-3.331187">
        <ele>699.2</ele>
        <time>2013-06-20T19:09:16Z</time>
      </trkpt>
      <trkpt lat="40.472387" lon="-3.331448">
        <ele>697.2</ele>
        <time>2013-06-20T19:09:22Z</time>
      </trkpt>
      <trkpt lat="40.472564" lon="-3.331669">
        <ele>694.8</ele>
        <time>2013-06-20T19:09:29Z</time>
      </trkpt>
      <trkpt lat="40.472498" lon="-3.331877">
        <ele>694.8</ele>
        <time>2013-06-20T19:09:36Z</time>
      </trkpt>
      <trkpt lat="40.472406" lon="-3.332079">
        <ele>693.1</ele>
        <time>2013-06-20T19:09:44Z</time>
      </trkpt>
      <trkpt lat="40.472578" lon="-3.33237">
        <ele>690.2</ele>
        <time>2013-06-20T19:09:53Z</time>
      </trkpt>
      <trkpt lat="40.472465" lon="-3.332552">
        <ele>691.0</ele>
        <time>2013-06-20T19:09:59Z</time>
      </trkpt>
      <trkpt lat="40.472324" lon="-3.3327">
        <ele>687.2</ele>
        <time>2013-06-20T19:10:07Z</time>
      </trkpt>
      <trkpt lat="40.472488" lon="-3.333048">
        <ele>693.7</ele>
        <time>2013-06-20T19:10:17Z</time>
      </trkpt>
      <trkpt lat="40.472495" lon="-3.333252">
        <ele>692.7</ele>
        <time>2013-06-20T19:10:26Z</time>
      </trkpt>
      <trkpt lat="40.472705" lon="-3.333278">
        <ele>692.9</ele>
        <time>2013-06-20T19:10:31Z</time>
      </trkpt>
      <trkpt lat="40.472824" lon="-3.33349">
        <ele>690.9</ele>
        <time>2013-06-20T19:10:37Z</time>
      </trkpt>
      <trkpt lat="40.472861" lon="-3.333821">
        <ele>687.7</ele>
        <time>2013-06-20T19:10:44Z</time>
      </trkpt>
      <trkpt lat="40.472843" lon="-3.334004">
        <ele>688.6</ele>
        <time>2013-06-20T19:10:49Z</time>
      </trkpt>
      <trkpt lat="40.472745" lon="-3.334306">
        <ele>687.7</ele>
        <time>2013-06-20T19:10:57Z</time>
      </trkpt>
      <trkpt lat="40.472672" lon="-3.334569">
        <ele>682.8</ele>
        <time>2013-06-20T19:11:06Z</time>
      </trkpt>
      <trkpt lat="40.472463" lon="-3.334468">
        <ele>683.4</ele>
        <time>2013-06-20T19:11:12Z</time>
      </trkpt>
      <trkpt lat="40.472244" lon="-3.334591">
        <ele>684.9</ele>
        <time>2013-06-20T19:11:19Z</time>
      </trkpt>
      <trkpt lat="40.472153" lon="-3.334904">
        <ele>683.2</ele>
        <time>2013-06-20T19:11:25Z</time>
      </trkpt>
      <trkpt lat="40.472214" lon="-3.335182">
        <ele>683.3</ele>
        <time>2013-06-20T19:11:30Z</time>
      </trkpt>
      <trkpt lat="40.472091" lon="-3.335474">
        <ele>677.4</ele>
        <time>2013-06-20T19:11:36Z</time>
      </trkpt>
      <trkpt lat="40.471918" lon="-3.335842">
        <ele>676.6</ele>
        <time>2013-06-20T19:11:43Z</time>
      </trkpt>
      <trkpt lat="40.471601" lon="-3.335998">
        <ele>675.6</ele>
        <time>2013-06-20T19:11:50Z</time>
      </trkpt>
      <trkpt lat="40.471385" lon="-3.336065">
        <ele>674.0</ele>
        <time>2013-06-20T19:11:55Z</time>
      </trkpt>
      <trkpt lat="40.471288" lon="-3.336231">
        <ele>674.1</ele>
        <time>2013-06-20T19:11:58Z</time>
      </trkpt>
      <trkpt lat="40.471174" lon="-3.336573">
        <ele>674.4</ele>
        <time>2013-06-20T19:12:03Z</time>
      </trkpt>
      <trkpt lat="40.471112" lon="-3.337045">
        <ele>673.8</ele>
        <time>2013-06-20T19:12:09Z</time>
      </trkpt>
      <trkpt lat="40.471167" lon="-3.33745">
        <ele>674.6</ele>
        <time>2013-06-20T19:12:15Z</time>
      </trkpt>
      <trkpt lat="40.471058" lon="-3.337929">
        <ele>675.3</ele>
        <time>2013-06-20T19:12:21Z</time>
      </trkpt>
      <trkpt lat="40.47086" lon="-3.338227">
        <ele>674.8</ele>
        <time>2013-06-20T19:12:26Z</time>
      </trkpt>
      <trkpt lat="40.470607" lon="-3.338452">
        <ele>672.6</ele>
        <time>2013-06-20T19:12:32Z</time>
      </trkpt>
      <trkpt lat="40.470436" lon="-3.338753">
        <ele>677.9</ele>
        <time>2013-06-20T19:12:38Z</time>
      </trkpt>
      <trkpt lat="40.470501" lon="-3.339087">
        <ele>672.1</ele>
        <time>2013-06-20T19:12:44Z</time>
      </trkpt>
      <trkpt lat="40.470594" lon="-3.339622">
        <ele>668.0</ele>
        <time>2013-06-20T19:12:50Z</time>
      </trkpt>
      <trkpt lat="40.470508" lon="-3.340152">
        <ele>665.8</ele>
        <time>2013-06-20T19:12:56Z</time>
      </trkpt>
      <trkpt lat="40.470345" lon="-3.340579">
        <ele>666.0</ele>
        <time>2013-06-20T19:13:01Z</time>
      </trkpt>
      <trkpt lat="40.470134" lon="-3.341192">
        <ele>664.9</ele>
        <time>2013-06-20T19:13:08Z</time>
      </trkpt>
      <trkpt lat="40.469959" lon="-3.341556">
        <ele>665.0</ele>
        <time>2013-06-20T19:13:13Z</time>
      </trkpt>
      <trkpt lat="40.469546" lon="-3.341605">
        <ele>663.7</ele>
        <time>2013-06-20T19:13:19Z</time>
      </trkpt>
      <trkpt lat="40.46933" lon="-3.34174">
        <ele>661.9</ele>
        <time>2013-06-20T19:13:26Z</time>
      </trkpt>
      <trkpt lat="40.469351" lon="-3.342095">
        <ele>659.0</ele>
        <time>2013-06-20T19:13:31Z</time>
      </trkpt>
      <trkpt lat="40.469196" lon="-3.34246">
        <ele>660.0</ele>
        <time>2013-06-20T19:13:36Z</time>
      </trkpt>
      <trkpt lat="40.469012" lon="-3.342732">
        <ele>659.7</ele>
        <time>2013-06-20T19:13:40Z</time>
      </trkpt>
      <trkpt lat="40.468848" lon="-3.342856">
        <ele>658.7</ele>
        <time>2013-06-20T19:13:43Z</time>
      </trkpt>
      <trkpt lat="40.468565" lon="-3.343237">
        <ele>657.2</ele>
        <time>2013-06-20T19:13:49Z</time>
      </trkpt>
      <trkpt lat="40.468395" lon="-3.343469">
        <ele>655.8</ele>
        <time>2013-06-20T19:13:53Z</time>
      </trkpt>
      <trkpt lat="40.468447" lon="-3.343745">
        <ele>655.2</ele>
        <time>2013-06-20T19:13:57Z</time>
      </trkpt>
      <trkpt lat="40.468332" lon="-3.34416">
        <ele>652.7</ele>
        <time>2013-06-20T19:14:03Z</time>
      </trkpt>
      <trkpt lat="40.468185" lon="-3.344332">
        <ele>652.7</ele>
        <time>2013-06-20T19:14:06Z</time>
      </trkpt>
      <trkpt lat="40.468023" lon="-3.344376">
        <ele>651.5</ele>
        <time>2013-06-20T19:14:09Z</time>
      </trkpt>
      <trkpt lat="40.467846" lon="-3.34446">
        <ele>650.7</ele>
        <time>2013-06-20T19:14:12Z</time>
      </trkpt>
      <trkpt lat="40.467638" lon="-3.344881">
        <ele>651.0</ele>
        <time>2013-06-20T19:14:18Z</time>
      </trkpt>
      <trkpt lat="40.467588" lon="-3.345118">
        <ele>649.9</ele>
        <time>2013-06-20T19:14:21Z</time>
      </trkpt>
      <trkpt lat="40.467496" lon="-3.3455">
        <ele>649.9</ele>
        <time>2013-06-20T19:14:26Z</time>
      </trkpt>
      <trkpt lat="40.467333" lon="-3.345602">
        <ele>650.9</ele>
        <time>2013-06-20T19:14:29Z</time>
      </trkpt>
      <trkpt lat="40.467147" lon="-3.345705">
        <ele>650.0</ele>
        <time>2013-06-20T19:14:32Z</time>
      </trkpt>
      <trkpt lat="40.46682" lon="-3.345996">
        <ele>649.5</ele>
        <time>2013-06-20T19:14:38Z</time>
      </trkpt>
      <trkpt lat="40.466711" lon="-3.346227">
        <ele>649.8</ele>
        <time>2013-06-20T19:14:41Z</time>
      </trkpt>
      <trkpt lat="40.466425" lon="-3.346588">
        <ele>649.6</ele>
        <time>2013-06-20T19:14:47Z</time>
      </trkpt>
      <trkpt lat="40.466236" lon="-3.346716">
        <ele>649.2</ele>
        <time>2013-06-20T19:14:50Z</time>
      </trkpt>
      <trkpt lat="40.466056" lon="-3.346778">
        <ele>648.9</ele>
        <time>2013-06-20T19:14:53Z</time>
      </trkpt>
      <trkpt lat="40.465799" lon="-3.346859">
        <ele>647.3</ele>
        <time>2013-06-20T19:14:58Z</time>
      </trkpt>
      <trkpt lat="40.465499" lon="-3.346972">
        <ele>644.5</ele>
        <time>2013-06-20T19:15:03Z</time>
      </trkpt>
      <trkpt lat="40.465112" lon="-3.347043">
        <ele>643.3</ele>
        <time>2013-06-20T19:15:09Z</time>
      </trkpt>
      <trkpt lat="40.464929" lon="-3.346994">
        <ele>642.8</ele>
        <time>2013-06-20T19:15:12Z</time>
      </trkpt>
      <trkpt lat="40.4647" lon="-3.347268">
        <ele>642.7</ele>
        <time>2013-06-20T19:15:18Z</time>
      </trkpt>
      <trkpt lat="40.464708" lon="-3.347499">
        <ele>641.7</ele>
        <time>2013-06-20T19:15:21Z</time>
      </trkpt>
      <trkpt lat="40.464742" lon="-3.347974">
        <ele>642.7</ele>
        <time>2013-06-20T19:15:27Z</time>
      </trkpt>
      <trkpt lat="40.464589" lon="-3.34849">
        <ele>642.5</ele>
        <time>2013-06-20T19:15:33Z</time>
      </trkpt>
      <trkpt lat="40.464434" lon="-3.348985">
        <ele>641.8</ele>
        <time>2013-06-20T19:15:39Z</time>
      </trkpt>
      <trkpt lat="40.464264" lon="-3.349355">
        <ele>638.4</ele>
        <time>2013-06-20T19:15:44Z</time>
      </trkpt>
      <trkpt lat="40.464154" lon="-3.349851">
        <ele>636.4</ele>
        <time>2013-06-20T19:15:50Z</time>
      </trkpt>
      <trkpt lat="40.464048" lon="-3.350108">
        <ele>635.6</ele>
        <time>2013-06-20T19:15:53Z</time>
      </trkpt>
      <trkpt lat="40.463876" lon="-3.350271">
        <ele>636.0</ele>
        <time>2013-06-20T19:15:56Z</time>
      </trkpt>
      <trkpt lat="40.463452" lon="-3.35032">
        <ele>637.8</ele>
        <time>2013-06-20T19:16:02Z</time>
      </trkpt>
      <trkpt lat="40.463104" lon="-3.350541">
        <ele>636.9</ele>
        <time>2013-06-20T19:16:07Z</time>
      </trkpt>
      <trkpt lat="40.462773" lon="-3.350922">
        <ele>637.3</ele>
        <time>2013-06-20T19:16:12Z</time>
      </trkpt>
      <trkpt lat="40.462413" lon="-3.351002">
        <ele>635.2</ele>
        <time>2013-06-20T19:16:17Z</time>
      </trkpt>
      <trkpt lat="40.46222" lon="-3.351037">
        <ele>635.1</ele>
        <time>2013-06-20T19:16:20Z</time>
      </trkpt>
      <trkpt lat="40.46212" lon="-3.351268">
        <ele>634.7</ele>
        <time>2013-06-20T19:16:23Z</time>
      </trkpt>
      <trkpt lat="40.462107" lon="-3.351527">
        <ele>633.3</ele>
        <time>2013-06-20T19:16:26Z</time>
      </trkpt>
      <trkpt lat="40.462042" lon="-3.352092">
        <ele>632.8</ele>
        <time>2013-06-20T19:16:32Z</time>
      </trkpt>
      <trkpt lat="40.46196" lon="-3.352389">
        <ele>631.2</ele>
        <time>2013-06-20T19:16:35Z</time>
      </trkpt>
      <trkpt lat="40.461808" lon="-3.352863">
        <ele>632.1</ele>
        <time>2013-06-20T19:16:40Z</time>
      </trkpt>
      <trkpt lat="40.461669" lon="-3.353383">
        <ele>631.8</ele>
        <time>2013-06-20T19:16:46Z</time>
      </trkpt>
      <trkpt lat="40.461913" lon="-3.353869">
        <ele>631.0</ele>
        <time>2013-06-20T19:16:52Z</time>
      </trkpt>
      <trkpt lat="40.462185" lon="-3.354276">
        <ele>628.7</ele>
        <time>2013-06-20T19:16:57Z</time>
      </trkpt>
      <trkpt lat="40.462257" lon="-3.35458">
        <ele>629.0</ele>
        <time>2013-06-20T19:17:00Z</time>
      </trkpt>
      <trkpt lat="40.462273" lon="-3.354899">
        <ele>628.2</ele>
        <time>2013-06-20T19:17:03Z</time>
      </trkpt>
      <trkpt lat="40.462253" lon="-3.355466">
        <ele>628.3</ele>
        <time>2013-06-20T19:17:09Z</time>
      </trkpt>
      <trkpt lat="40.46233" lon="-3.355724">
        <ele>626.4</ele>
        <time>2013-06-20T19:17:12Z</time>
      </trkpt>
      <trkpt lat="40.462486" lon="-3.356148">
        <ele>625.9</ele>
        <time>2013-06-20T19:17:17Z</time>
      </trkpt>
      <trkpt lat="40.462515" lon="-3.356679">
        <ele>624.9</ele>
        <time>2013-06-20T19:17:23Z</time>
      </trkpt>
      <trkpt lat="40.462673" lon="-3.357187">
        <ele>621.3</ele>
        <time>2013-06-20T19:17:29Z</time>
      </trkpt>
      <trkpt lat="40.462803" lon="-3.357405">
        <ele>620.8</ele>
        <time>2013-06-20T19:17:32Z</time>
      </trkpt>
      <trkpt lat="40.463101" lon="-3.357577">
        <ele>620.6</ele>
        <time>2013-06-20T19:17:36Z</time>
      </trkpt>
      <trkpt lat="40.4633" lon="-3.357739">
        <ele>619.7</ele>
        <time>2013-06-20T19:17:39Z</time>
      </trkpt>
      <trkpt lat="40.463617" lon="-3.357991">
        <ele>619.5</ele>
        <time>2013-06-20T19:17:44Z</time>
      </trkpt>
      <trkpt lat="40.463776" lon="-3.358373">
        <ele>619.9</ele>
        <time>2013-06-20T19:17:49Z</time>
      </trkpt>
      <trkpt lat="40.46404" lon="-3.35883">
        <ele>619.2</ele>
        <time>2013-06-20T19:17:55Z</time>
      </trkpt>
      <trkpt lat="40.464318" lon="-3.359245">
        <ele>617.8</ele>
        <time>2013-06-20T19:18:01Z</time>
      </trkpt>
      <trkpt lat="40.464478" lon="-3.359371">
        <ele>616.0</ele>
        <time>2013-06-20T19:18:04Z</time>
      </trkpt>
      <trkpt lat="40.464613" lon="-3.359532">
        <ele>619.0</ele>
        <time>2013-06-20T19:18:08Z</time>
      </trkpt>
      <trkpt lat="40.464501" lon="-3.359738">
        <ele>623.8</ele>
        <time>2013-06-20T19:18:18Z</time>
      </trkpt>
      <trkpt lat="40.464268" lon="-3.36012">
        <ele>626.6</ele>
        <time>2013-06-20T19:18:28Z</time>
      </trkpt>
      <trkpt lat="40.46413" lon="-3.36043">
        <ele>626.3</ele>
        <time>2013-06-20T19:18:37Z</time>
      </trkpt>
      <trkpt lat="40.463929" lon="-3.36061">
        <ele>627.1</ele>
        <time>2013-06-20T19:18:44Z</time>
      </trkpt>
      <trkpt lat="40.463733" lon="-3.360755">
        <ele>626.4</ele>
        <time>2013-06-20T19:18:51Z</time>
      </trkpt>
      <trkpt lat="40.463545" lon="-3.360861">
        <ele>624.0</ele>
        <time>2013-06-20T19:19:02Z</time>
      </trkpt>
      <trkpt lat="40.463523" lon="-3.361214">
        <ele>625.0</ele>
        <time>2013-06-20T19:19:11Z</time>
      </trkpt>
      <trkpt lat="40.463535" lon="-3.361344">
        <ele>626.1</ele>
        <time>2013-06-20T19:19:15Z</time>
      </trkpt>
      <trkpt lat="40.46356" lon="-3.361578">
        <ele>623.9</ele>
        <time>2013-06-20T19:19:21Z</time>
      </trkpt>
      <trkpt lat="40.463613" lon="-3.361887">
        <ele>622.5</ele>
        <time>2013-06-20T19:19:28Z</time>
      </trkpt>
      <trkpt lat="40.463657" lon="-3.362166">
        <ele>623.6</ele>
        <time>2013-06-20T19:19:34Z</time>
      </trkpt>
      <trkpt lat="40.463568" lon="-3.362394">
        <ele>623.0</ele>
        <time>2013-06-20T19:19:41Z</time>
      </trkpt>
      <trkpt lat="40.463382" lon="-3.362424">
        <ele>626.7</ele>
        <time>2013-06-20T19:19:47Z</time>
      </trkpt>
      <trkpt lat="40.463232" lon="-3.36251">
        <ele>628.4</ele>
        <time>2013-06-20T19:19:54Z</time>
      </trkpt>
      <trkpt lat="40.463195" lon="-3.362763">
        <ele>630.8</ele>
        <time>2013-06-20T19:20:04Z</time>
      </trkpt>
      <trkpt lat="40.463345" lon="-3.363094">
        <ele>628.7</ele>
        <time>2013-06-20T19:20:15Z</time>
      </trkpt>
      <trkpt lat="40.463486" lon="-3.363289">
        <ele>628.1</ele>
        <time>2013-06-20T19:20:21Z</time>
      </trkpt>
      <trkpt lat="40.46361" lon="-3.363479">
        <ele>629.2</ele>
        <time>2013-06-20T19:20:26Z</time>
      </trkpt>
      <trkpt lat="40.463717" lon="-3.363686">
        <ele>624.5</ele>
        <time>2013-06-20T19:20:33Z</time>
      </trkpt>
      <trkpt lat="40.46375" lon="-3.363907">
        <ele>623.8</ele>
        <time>2013-06-20T19:20:43Z</time>
      </trkpt>
      <trkpt lat="40.463846" lon="-3.364058">
        <ele>622.5</ele>
        <time>2013-06-20T19:20:53Z</time>
      </trkpt>
      <trkpt lat="40.463979" lon="-3.364279">
        <ele>622.4</ele>
        <time>2013-06-20T19:20:58Z</time>
      </trkpt>
      <trkpt lat="40.464111" lon="-3.364514">
        <ele>621.9</ele>
        <time>2013-06-20T19:21:03Z</time>
      </trkpt>
      <trkpt lat="40.464256" lon="-3.364773">
        <ele>621.2</ele>
        <time>2013-06-20T19:21:09Z</time>
      </trkpt>
      <trkpt lat="40.464316" lon="-3.364904">
        <ele>621.5</ele>
        <time>2013-06-20T19:21:15Z</time>
      </trkpt>
      <trkpt lat="40.464316" lon="-3.364904">
        <ele>621.5</ele>
        <time>2013-06-20T19:21:21Z</time>
      </trkpt>
      <trkpt lat="40.464316" lon="-3.364904">
        <time>2013-06-20T19:21:21Z</time>
      </trkpt>
    </trkseg>
    <trkseg>
      <trkpt lat="40.464316" lon="-3.364904">
        <time>2013-06-20T19:21:27Z</time>
      </trkpt>
      <trkpt lat="40.464365" lon="-3.36457">
        <ele>616.4</ele>
        <time>2013-06-20T19:21:27Z</time>
      </trkpt>
      <trkpt lat="40.464433" lon="-3.36435">
        <ele>616.5</ele>
        <time>2013-06-20T19:21:30Z</time>
      </trkpt>
      <trkpt lat="40.464525" lon="-3.36388">
        <ele>615.8</ele>
        <time>2013-06-20T19:21:36Z</time>
      </trkpt>
      <trkpt lat="40.464559" lon="-3.3636">
        <ele>617.4</ele>
        <time>2013-06-20T19:21:40Z</time>
      </trkpt>
      <trkpt lat="40.464582" lon="-3.363373">
        <ele>616.7</ele>
        <time>2013-06-20T19:21:43Z</time>
      </trkpt>
      <trkpt lat="40.464545" lon="-3.36297">
        <ele>616.1</ele>
        <time>2013-06-20T19:21:49Z</time>
      </trkpt>
      <trkpt lat="40.464592" lon="-3.362661">
        <ele>615.5</ele>
        <time>2013-06-20T19:21:54Z</time>
      </trkpt>
      <trkpt lat="40.464635" lon="-3.362244">
        <ele>615.3</ele>
        <time>2013-06-20T19:22:00Z</time>
      </trkpt>
      <trkpt lat="40.464686" lon="-3.361779">
        <ele>614.9</ele>
        <time>2013-06-20T19:22:06Z</time>
      </trkpt>
      <trkpt lat="40.464696" lon="-3.361615">
        <ele>617.2</ele>
        <time>2013-06-20T19:22:09Z</time>
      </trkpt>
      <trkpt lat="40.464729" lon="-3.361447">
        <ele>617.1</ele>
        <time>2013-06-20T19:22:13Z</time>
      </trkpt>
      <trkpt lat="40.46479" lon="-3.36124">
        <ele>618.1</ele>
        <time>2013-06-20T19:22:17Z</time>
      </trkpt>
      <trkpt lat="40.464904" lon="-3.360988">
        <ele>617.9</ele>
        <time>2013-06-20T19:22:22Z</time>
      </trkpt>
      <trkpt lat="40.465067" lon="-3.360725">
        <ele>618.2</ele>
        <time>2013-06-20T19:22:27Z</time>
      </trkpt>
      <trkpt lat="40.465282" lon="-3.360459">
        <ele>615.6</ele>
        <time>2013-06-20T19:22:33Z</time>
      </trkpt>
      <trkpt lat="40.465508" lon="-3.360287">
        <ele>616.9</ele>
        <time>2013-06-20T19:22:39Z</time>
      </trkpt>
      <trkpt lat="40.46563" lon="-3.360159">
        <ele>616.4</ele>
        <time>2013-06-20T19:22:42Z</time>
      </trkpt>
      <trkpt lat="40.465816" lon="-3.359965">
        <ele>616.1</ele>
        <time>2013-06-20T19:22:47Z</time>
      </trkpt>
      <trkpt lat="40.465962" lon="-3.359722">
        <ele>615.9</ele>
        <time>2013-06-20T19:22:53Z</time>
      </trkpt>
      <trkpt lat="40.466155" lon="-3.359524">
        <ele>616.0</ele>
        <time>2013-06-20T19:22:59Z</time>
      </trkpt>
      <trkpt lat="40.466289" lon="-3.359287">
        <ele>617.3</ele>
        <time>2013-06-20T19:23:04Z</time>
      </trkpt>
      <trkpt lat="40.466457" lon="-3.358991">
        <ele>616.3</ele>
        <time>2013-06-20T19:23:10Z</time>
      </trkpt>
      <trkpt lat="40.46664" lon="-3.358806">
        <ele>615.2</ele>
        <time>2013-06-20T19:23:15Z</time>
      </trkpt>
      <trkpt lat="40.466931" lon="-3.358691">
        <ele>617.4</ele>
        <time>2013-06-20T19:23:21Z</time>
      </trkpt>
      <trkpt lat="40.467079" lon="-3.358659">
        <ele>618.3</ele>
        <time>2013-06-20T19:23:24Z</time>
      </trkpt>
      <trkpt lat="40.46739" lon="-3.35857">
        <ele>619.8</ele>
        <time>2013-06-20T19:23:30Z</time>
      </trkpt>
      <trkpt lat="40.467693" lon="-3.358491">
        <ele>621.0</ele>
        <time>2013-06-20T19:23:36Z</time>
      </trkpt>
      <trkpt lat="40.467927" lon="-3.358307">
        <ele>617.8</ele>
        <time>2013-06-20T19:23:41Z</time>
      </trkpt>
      <trkpt lat="40.468127" lon="-3.358027">
        <ele>617.0</ele>
        <time>2013-06-20T19:23:47Z</time>
      </trkpt>
      <trkpt lat="40.468298" lon="-3.357725">
        <ele>615.5</ele>
        <time>2013-06-20T19:23:52Z</time>
      </trkpt>
      <trkpt lat="40.468527" lon="-3.357384">
        <ele>616.0</ele>
        <time>2013-06-20T19:23:58Z</time>
      </trkpt>
      <trkpt lat="40.46865" lon="-3.357268">
        <ele>615.1</ele>
        <time>2013-06-20T19:24:01Z</time>
      </trkpt>
      <trkpt lat="40.468894" lon="-3.357083">
        <ele>615.2</ele>
        <time>2013-06-20T19:24:06Z</time>
      </trkpt>
      <trkpt lat="40.46922" lon="-3.357036">
        <ele>614.0</ele>
        <time>2013-06-20T19:24:12Z</time>
      </trkpt>
      <trkpt lat="40.469294" lon="-3.357415">
        <ele>616.6</ele>
        <time>2013-06-20T19:24:19Z</time>
      </trkpt>
      <trkpt lat="40.469264" lon="-3.357739">
        <ele>615.7</ele>
        <time>2013-06-20T19:24:25Z</time>
      </trkpt>
      <trkpt lat="40.469268" lon="-3.358171">
        <ele>618.8</ele>
        <time>2013-06-20T19:24:32Z</time>
      </trkpt>
      <trkpt lat="40.469254" lon="-3.358528">
        <ele>621.2</ele>
        <time>2013-06-20T19:24:37Z</time>
      </trkpt>
      <trkpt lat="40.469222" lon="-3.358986">
        <ele>621.5</ele>
        <time>2013-06-20T19:24:43Z</time>
      </trkpt>
      <trkpt lat="40.4692" lon="-3.359198">
        <ele>620.1</ele>
        <time>2013-06-20T19:24:48Z</time>
      </trkpt>
      <trkpt lat="40.46927" lon="-3.359476">
        <ele>618.2</ele>
        <time>2013-06-20T19:24:53Z</time>
      </trkpt>
      <trkpt lat="40.469344" lon="-3.359934">
        <ele>617.5</ele>
        <time>2013-06-20T19:24:59Z</time>
      </trkpt>
      <trkpt lat="40.46946" lon="-3.360465">
        <ele>615.3</ele>
        <time>2013-06-20T19:25:05Z</time>
      </trkpt>
      <trkpt lat="40.469624" lon="-3.360923">
        <ele>613.0</ele>
        <time>2013-06-20T19:25:11Z</time>
      </trkpt>
      <trkpt lat="40.469836" lon="-3.361169">
        <ele>613.1</ele>
        <time>2013-06-20T19:25:18Z</time>
      </trkpt>
      <trkpt lat="40.470087" lon="-3.361252">
        <ele>621.2</ele>
        <time>2013-06-20T19:25:27Z</time>
      </trkpt>
      <trkpt lat="40.470314" lon="-3.361307">
        <ele>623.8</ele>
        <time>2013-06-20T19:25:33Z</time>
      </trkpt>
      <trkpt lat="40.47056" lon="-3.36137">
        <ele>624.3</ele>
        <time>2013-06-20T19:25:38Z</time>
      </trkpt>
      <trkpt lat="40.470862" lon="-3.361432">
        <ele>626.6</ele>
        <time>2013-06-20T19:25:44Z</time>
      </trkpt>
      <trkpt lat="40.471166" lon="-3.361537">
        <ele>627.6</ele>
        <time>2013-06-20T19:25:50Z</time>
      </trkpt>
      <trkpt lat="40.471439" lon="-3.361604">
        <ele>630.8</ele>
        <time>2013-06-20T19:25:56Z</time>
      </trkpt>
      <trkpt lat="40.471664" lon="-3.361743">
        <ele>630.8</ele>
        <time>2013-06-20T19:26:02Z</time>
      </trkpt>
      <trkpt lat="40.47186" lon="-3.361811">
        <ele>633.2</ele>
        <time>2013-06-20T19:26:07Z</time>
      </trkpt>
      <trkpt lat="40.472051" lon="-3.361926">
        <ele>632.5</ele>
        <time>2013-06-20T19:26:12Z</time>
      </trkpt>
      <trkpt lat="40.472322" lon="-3.362022">
        <ele>634.3</ele>
        <time>2013-06-20T19:26:18Z</time>
      </trkpt>
      <trkpt lat="40.472581" lon="-3.362086">
        <ele>636.3</ele>
        <time>2013-06-20T19:26:23Z</time>
      </trkpt>
      <trkpt lat="40.472852" lon="-3.362188">
        <ele>638.2</ele>
        <time>2013-06-20T19:26:29Z</time>
      </trkpt>
      <trkpt lat="40.473121" lon="-3.362299">
        <ele>638.6</ele>
        <time>2013-06-20T19:26:36Z</time>
      </trkpt>
      <trkpt lat="40.473408" lon="-3.36243">
        <ele>635.2</ele>
        <time>2013-06-20T19:26:43Z</time>
      </trkpt>
      <trkpt lat="40.473544" lon="-3.36247">
        <ele>635.7</ele>
        <time>2013-06-20T19:26:46Z</time>
      </trkpt>
      <trkpt lat="40.473818" lon="-3.36252">
        <ele>635.2</ele>
        <time>2013-06-20T19:26:52Z</time>
      </trkpt>
      <trkpt lat="40.474069" lon="-3.362477">
        <ele>638.5</ele>
        <time>2013-06-20T19:26:57Z</time>
      </trkpt>
      <trkpt lat="40.474323" lon="-3.362401">
        <ele>638.3</ele>
        <time>2013-06-20T19:27:02Z</time>
      </trkpt>
      <trkpt lat="40.474561" lon="-3.36236">
        <ele>636.7</ele>
        <time>2013-06-20T19:27:07Z</time>
      </trkpt>
      <trkpt lat="40.474871" lon="-3.362249">
        <ele>638.7</ele>
        <time>2013-06-20T19:27:14Z</time>
      </trkpt>
      <trkpt lat="40.475305" lon="-3.361973">
        <ele>635.3</ele>
        <time>2013-06-20T19:27:20Z</time>
      </trkpt>
      <trkpt lat="40.475571" lon="-3.361693">
        <ele>632.8</ele>
        <time>2013-06-20T19:27:25Z</time>
      </trkpt>
      <trkpt lat="40.475781" lon="-3.361467">
        <ele>631.9</ele>
        <time>2013-06-20T19:27:30Z</time>
      </trkpt>
      <trkpt lat="40.475913" lon="-3.361297">
        <ele>631.1</ele>
        <time>2013-06-20T19:27:36Z</time>
      </trkpt>
      <trkpt lat="40.476156" lon="-3.361088">
        <ele>631.7</ele>
        <time>2013-06-20T19:27:43Z</time>
      </trkpt>
      <trkpt lat="40.476364" lon="-3.360885">
        <ele>630.8</ele>
        <time>2013-06-20T19:27:49Z</time>
      </trkpt>
      <trkpt lat="40.476527" lon="-3.360674">
        <ele>629.6</ele>
        <time>2013-06-20T19:27:54Z</time>
      </trkpt>
      <trkpt lat="40.476735" lon="-3.360395">
        <ele>625.8</ele>
        <time>2013-06-20T19:28:00Z</time>
      </trkpt>
      <trkpt lat="40.47691" lon="-3.360235">
        <ele>625.0</ele>
        <time>2013-06-20T19:28:04Z</time>
      </trkpt>
      <trkpt lat="40.477049" lon="-3.360132">
        <ele>625.9</ele>
        <time>2013-06-20T19:28:11Z</time>
      </trkpt>
      <trkpt lat="40.477213" lon="-3.359739">
        <ele>625.7</ele>
        <time>2013-06-20T19:28:20Z</time>
      </trkpt>
      <trkpt lat="40.477351" lon="-3.359377">
        <ele>626.0</ele>
        <time>2013-06-20T19:28:27Z</time>
      </trkpt>
      <trkpt lat="40.477528" lon="-3.35902">
        <ele>626.3</ele>
        <time>2013-06-20T19:28:34Z</time>
      </trkpt>
      <trkpt lat="40.477723" lon="-3.358757">
        <ele>627.2</ele>
        <time>2013-06-20T19:28:40Z</time>
      </trkpt>
      <trkpt lat="40.477869" lon="-3.358531">
        <ele>627.1</ele>
        <time>2013-06-20T19:28:45Z</time>
      </trkpt>
      <trkpt lat="40.478144" lon="-3.358346">
        <ele>626.8</ele>
        <time>2013-06-20T19:28:51Z</time>
      </trkpt>
      <trkpt lat="40.478408" lon="-3.358126">
        <ele>627.9</ele>
        <time>2013-06-20T19:28:57Z</time>
      </trkpt>
      <trkpt lat="40.478605" lon="-3.358018">
        <ele>630.3</ele>
        <time>2013-06-20T19:29:02Z</time>
      </trkpt>
      <trkpt lat="40.478788" lon="-3.357873">
        <ele>631.5</ele>
        <time>2013-06-20T19:29:07Z</time>
      </trkpt>
      <trkpt lat="40.478927" lon="-3.35778">
        <ele>632.1</ele>
        <time>2013-06-20T19:29:10Z</time>
      </trkpt>
      <trkpt lat="40.479196" lon="-3.357573">
        <ele>633.9</ele>
        <time>2013-06-20T19:29:17Z</time>
      </trkpt>
      <trkpt lat="40.479466" lon="-3.357386">
        <ele>633.2</ele>
        <time>2013-06-20T19:29:23Z</time>
      </trkpt>
      <trkpt lat="40.479644" lon="-3.357179">
        <ele>634.1</ele>
        <time>2013-06-20T19:29:28Z</time>
      </trkpt>
      <trkpt lat="40.479908" lon="-3.356918">
        <ele>635.3</ele>
        <time>2013-06-20T19:29:34Z</time>
      </trkpt>
      <trkpt lat="40.480026" lon="-3.356793">
        <ele>636.4</ele>
        <time>2013-06-20T19:29:37Z</time>
      </trkpt>
      <trkpt lat="40.480163" lon="-3.356659">
        <ele>636.4</ele>
        <time>2013-06-20T19:29:40Z</time>
      </trkpt>
      <trkpt lat="40.480302" lon="-3.356495">
        <ele>636.4</ele>
        <time>2013-06-20T19:29:43Z</time>
      </trkpt>
      <trkpt lat="40.480519" lon="-3.356179">
        <ele>634.4</ele>
        <time>2013-06-20T19:29:49Z</time>
      </trkpt>
      <trkpt lat="40.480677" lon="-3.355847">
        <ele>633.6</ele>
        <time>2013-06-20T19:29:55Z</time>
      </trkpt>
      <trkpt lat="40.480841" lon="-3.355529">
        <ele>631.5</ele>
        <time>2013-06-20T19:30:02Z</time>
      </trkpt>
      <trkpt lat="40.480974" lon="-3.355297">
        <ele>631.1</ele>
        <time>2013-06-20T19:30:08Z</time>
      </trkpt>
      <trkpt lat="40.481123" lon="-3.355037">
        <ele>632.1</ele>
        <time>2013-06-20T19:30:14Z</time>
      </trkpt>
      <trkpt lat="40.481255" lon="-3.354818">
        <ele>632.1</ele>
        <time>2013-06-20T19:30:20Z</time>
      </trkpt>
      <trkpt lat="40.481394" lon="-3.354541">
        <ele>631.5</ele>
        <time>2013-06-20T19:30:27Z</time>
      </trkpt>
      <trkpt lat="40.481504" lon="-3.354385">
        <ele>631.0</ele>
        <time>2013-06-20T19:30:32Z</time>
      </trkpt>
      <trkpt lat="40.48171" lon="-3.354296">
        <ele>632.8</ele>
        <time>2013-06-20T19:30:38Z</time>
      </trkpt>
      <trkpt lat="40.481835" lon="-3.354213">
        <ele>634.9</ele>
        <time>2013-06-20T19:30:42Z</time>
      </trkpt>
      <trkpt lat="40.482068" lon="-3.35405">
        <ele>637.0</ele>
        <time>2013-06-20T19:30:49Z</time>
      </trkpt>
      <trkpt lat="40.482226" lon="-3.353931">
        <ele>636.7</ele>
        <time>2013-06-20T19:30:54Z</time>
      </trkpt>
      <trkpt lat="40.482272" lon="-3.353694">
        <ele>633.9</ele>
        <time>2013-06-20T19:31:00Z</time>
      </trkpt>
      <trkpt lat="40.482326" lon="-3.353423">
        <ele>633.0</ele>
        <time>2013-06-20T19:31:06Z</time>
      </trkpt>
      <trkpt lat="40.482401" lon="-3.353173">
        <ele>631.6</ele>
        <time>2013-06-20T19:31:12Z</time>
      </trkpt>
      <trkpt lat="40.482411" lon="-3.353101">
        <ele>631.5</ele>
        <time>2013-06-20T19:31:15Z</time>
      </trkpt>
      <trkpt lat="40.482411" lon="-3.353101">
        <time>2013-06-20T19:31:20Z</time>
      </trkpt>
    </trkseg>
    <trkseg>
      <trkpt lat="40.482411" lon="-3.353101">
        <time>2013-06-20T19:31:26Z</time>
      </trkpt>
      <trkpt lat="40.482437" lon="-3.352969">
        <ele>632.5</ele>
        <time>2013-06-20T19:31:26Z</time>
      </trkpt>
      <trkpt lat="40.482562" lon="-3.352508">
        <ele>634.0</ele>
        <time>2013-06-20T19:31:38Z</time>
      </trkpt>
      <trkpt lat="40.482708" lon="-3.352331">
        <ele>637.2</ele>
        <time>2013-06-20T19:31:46Z</time>
      </trkpt>
      <trkpt lat="40.48288" lon="-3.352354">
        <ele>626.3</ele>
        <time>2013-06-20T19:31:53Z</time>
      </trkpt>
      <trkpt lat="40.483086" lon="-3.352351">
        <ele>634.4</ele>
        <time>2013-06-20T19:31:59Z</time>
      </trkpt>
      <trkpt lat="40.483327" lon="-3.352148">
        <ele>629.1</ele>
        <time>2013-06-20T19:32:06Z</time>
      </trkpt>
      <trkpt lat="40.483495" lon="-3.351869">
        <ele>627.9</ele>
        <time>2013-06-20T19:32:12Z</time>
      </trkpt>
      <trkpt lat="40.483612" lon="-3.351636">
        <ele>630.7</ele>
        <time>2013-06-20T19:32:17Z</time>
      </trkpt>
      <trkpt lat="40.483738" lon="-3.351424">
        <ele>627.4</ele>
        <time>2013-06-20T19:32:22Z</time>
      </trkpt>
      <trkpt lat="40.483887" lon="-3.351176">
        <ele>626.7</ele>
        <time>2013-06-20T19:32:28Z</time>
      </trkpt>
      <trkpt lat="40.484051" lon="-3.350889">
        <ele>625.4</ele>
        <time>2013-06-20T19:32:34Z</time>
      </trkpt>
      <trkpt lat="40.484172" lon="-3.350644">
        <ele>624.9</ele>
        <time>2013-06-20T19:32:40Z</time>
      </trkpt>
      <trkpt lat="40.484334" lon="-3.350346">
        <ele>627.2</ele>
        <time>2013-06-20T19:32:47Z</time>
      </trkpt>
      <trkpt lat="40.484396" lon="-3.35023">
        <ele>627.9</ele>
        <time>2013-06-20T19:32:51Z</time>
      </trkpt>
      <trkpt lat="40.484396" lon="-3.35023">
        <time>2013-06-20T19:32:56Z</time>
      </trkpt>
    </trkseg>
    <trkseg>
      <trkpt lat="40.484396" lon="-3.35023">
        <time>2013-06-20T19:33:00Z</time>
      </trkpt>
      <trkpt lat="40.484417" lon="-3.350145">
        <ele>629.0</ele>
        <time>2013-06-20T19:33:00Z</time>
      </trkpt>
      <trkpt lat="40.484722" lon="-3.34998">
        <ele>636.2</ele>
        <time>2013-06-20T19:33:08Z</time>
      </trkpt>
      <trkpt lat="40.484775" lon="-3.349839">
        <ele>637.8</ele>
        <time>2013-06-20T19:33:14Z</time>
      </trkpt>
      <trkpt lat="40.484879" lon="-3.349572">
        <ele>639.6</ele>
        <time>2013-06-20T19:33:22Z</time>
      </trkpt>
      <trkpt lat="40.485014" lon="-3.349341">
        <ele>639.3</ele>
        <time>2013-06-20T19:33:28Z</time>
      </trkpt>
      <trkpt lat="40.485156" lon="-3.349083">
        <ele>634.2</ele>
        <time>2013-06-20T19:33:35Z</time>
      </trkpt>
      <trkpt lat="40.485379" lon="-3.349159">
        <ele>638.1</ele>
        <time>2013-06-20T19:33:43Z</time>
      </trkpt>
      <trkpt lat="40.485576" lon="-3.349361">
        <ele>636.3</ele>
        <time>2013-06-20T19:33:50Z</time>
      </trkpt>
      <trkpt lat="40.485664" lon="-3.349455">
        <ele>636.7</ele>
        <time>2013-06-20T19:33:54Z</time>
      </trkpt>
      <trkpt lat="40.485795" lon="-3.349427">
        <ele>635.5</ele>
        <time>2013-06-20T19:34:00Z</time>
      </trkpt>
      <trkpt lat="40.485997" lon="-3.3491">
        <ele>630.4</ele>
        <time>2013-06-20T19:34:09Z</time>
      </trkpt>
      <trkpt lat="40.48618" lon="-3.348956">
        <ele>629.9</ele>
        <time>2013-06-20T19:34:16Z</time>
      </trkpt>
      <trkpt lat="40.486354" lon="-3.349143">
        <ele>630.4</ele>
        <time>2013-06-20T19:34:23Z</time>
      </trkpt>
      <trkpt lat="40.486397" lon="-3.349308">
        <ele>631.1</ele>
        <time>2013-06-20T19:34:29Z</time>
      </trkpt>
      <trkpt lat="40.486444" lon="-3.349492">
        <ele>631.7</ele>
        <time>2013-06-20T19:34:38Z</time>
      </trkpt>
      <trkpt lat="40.486444" lon="-3.349492">
        <time>2013-06-20T19:34:46Z</time>
      </trkpt>
    </trkseg>
    <trkseg>
      <trkpt lat="40.486444" lon="-3.349492">
        <time>2013-06-20T19:35:08Z</time>
      </trkpt>
    </trkseg>
  </trk>
</gpx>